<?xml version="1.0" encoding="UTF-8" standalone="no" ?>
<gpx xmlns="http://www.topografix.com/GPX/1/1" xmlns:xsi="http://www.w3.org/2001/XMLSchema-instance" xsi:schemaLocation="http://www.topografix.com/GPX/1/1 http://www.topografix.com/GPX/1/1/gpx.xsd" version="1.1" creator="VisuGPX - https://www.visugpx.com">
  <metadata>
    <name>MARIE-JO</name>
    <desc><![CDATA[File with points/tracks from Locus Map/4.2.1]]></desc>
  </metadata>
  <trk>
    <name><![CDATA[2021-07-27 09:54:00]]></name>
    <desc><![CDATA[1 bono]]></desc>
    <extensions>
      <line xmlns="http://www.topografix.com/GPX/gpx_style/0/2">
        <color>0000FF</color>
        <opacity>0.59</opacity>
        <width>6.0</width>
      </line>
    </extensions>
    <trkseg>
      <trkpt lat="47.63802" lon="-2.94791">
        <ele>24.08</ele>
        <time>2021-07-27T07:54:00.000Z</time>
      </trkpt>
      <trkpt lat="47.63804" lon="-2.94793">
        <ele>24.89</ele>
        <time>2021-07-27T07:54:10.000Z</time>
      </trkpt>
      <trkpt lat="47.63803" lon="-2.94793">
        <ele>24.97</ele>
        <time>2021-07-27T07:54:24.000Z</time>
      </trkpt>
      <trkpt lat="47.63799" lon="-2.94774">
        <ele>25.02</ele>
        <time>2021-07-27T07:54:34.000Z</time>
      </trkpt>
      <trkpt lat="47.63798" lon="-2.94784">
        <ele>24.85</ele>
        <time>2021-07-27T07:54:44.000Z</time>
      </trkpt>
      <trkpt lat="47.63797" lon="-2.9479">
        <ele>24.86</ele>
        <time>2021-07-27T07:54:54.000Z</time>
      </trkpt>
      <trkpt lat="47.63798" lon="-2.94796">
        <ele>24.86</ele>
        <time>2021-07-27T07:55:04.000Z</time>
      </trkpt>
      <trkpt lat="47.63798" lon="-2.94795">
        <ele>25.05</ele>
        <time>2021-07-27T07:55:23.000Z</time>
      </trkpt>
      <trkpt lat="47.63794" lon="-2.94797">
        <ele>26.72</ele>
        <time>2021-07-27T07:55:33.000Z</time>
      </trkpt>
      <trkpt lat="47.63797" lon="-2.94792">
        <ele>26.4</ele>
        <time>2021-07-27T07:55:43.000Z</time>
      </trkpt>
      <trkpt lat="47.63794" lon="-2.94796">
        <ele>25.66</ele>
        <time>2021-07-27T07:55:53.000Z</time>
      </trkpt>
      <trkpt lat="47.63793" lon="-2.94794">
        <ele>25.44</ele>
        <time>2021-07-27T07:56:03.000Z</time>
      </trkpt>
      <trkpt lat="47.63795" lon="-2.94794">
        <ele>25.99</ele>
        <time>2021-07-27T07:56:12.108Z</time>
      </trkpt>
      <trkpt lat="47.63802" lon="-2.94799">
        <ele>25.77</ele>
        <time>2021-07-27T07:56:21.628Z</time>
      </trkpt>
      <trkpt lat="47.63813" lon="-2.94815">
        <ele>24.37</ele>
        <time>2021-07-27T07:56:31.568Z</time>
      </trkpt>
      <trkpt lat="47.63826" lon="-2.94825">
        <ele>23.7</ele>
        <time>2021-07-27T07:56:41.718Z</time>
      </trkpt>
      <trkpt lat="47.63833" lon="-2.94833">
        <ele>23.9</ele>
        <time>2021-07-27T07:56:52.000Z</time>
      </trkpt>
      <trkpt lat="47.63833" lon="-2.94834">
        <ele>23.88</ele>
        <time>2021-07-27T07:57:02.208Z</time>
      </trkpt>
      <trkpt lat="47.63841" lon="-2.9485">
        <ele>23.71</ele>
        <time>2021-07-27T07:57:11.668Z</time>
      </trkpt>
      <trkpt lat="47.63848" lon="-2.94865">
        <ele>23.51</ele>
        <time>2021-07-27T07:57:20.688Z</time>
      </trkpt>
      <trkpt lat="47.63863" lon="-2.9487">
        <ele>23.1</ele>
        <time>2021-07-27T07:57:30.127Z</time>
      </trkpt>
      <trkpt lat="47.63872" lon="-2.94882">
        <ele>22.9</ele>
        <time>2021-07-27T07:57:40.047Z</time>
      </trkpt>
      <trkpt lat="47.63875" lon="-2.94898">
        <ele>22.53</ele>
        <time>2021-07-27T07:57:49.538Z</time>
      </trkpt>
      <trkpt lat="47.63887" lon="-2.94904">
        <ele>22.49</ele>
        <time>2021-07-27T07:57:59.388Z</time>
      </trkpt>
      <trkpt lat="47.63899" lon="-2.94903">
        <ele>22.22</ele>
        <time>2021-07-27T07:58:09.000Z</time>
      </trkpt>
      <trkpt lat="47.63909" lon="-2.94899">
        <ele>21.44</ele>
        <time>2021-07-27T07:58:19.000Z</time>
      </trkpt>
      <trkpt lat="47.63921" lon="-2.94897">
        <ele>20.8</ele>
        <time>2021-07-27T07:58:28.471Z</time>
      </trkpt>
      <trkpt lat="47.63932" lon="-2.94897">
        <ele>20.52</ele>
        <time>2021-07-27T07:58:37.948Z</time>
      </trkpt>
      <trkpt lat="47.63943" lon="-2.94899">
        <ele>20.35</ele>
        <time>2021-07-27T07:58:47.398Z</time>
      </trkpt>
      <trkpt lat="47.63952" lon="-2.94898">
        <ele>20.13</ele>
        <time>2021-07-27T07:58:56.408Z</time>
      </trkpt>
      <trkpt lat="47.63961" lon="-2.94896">
        <ele>19.86</ele>
        <time>2021-07-27T07:59:06.000Z</time>
      </trkpt>
      <trkpt lat="47.63973" lon="-2.94894">
        <ele>19.95</ele>
        <time>2021-07-27T07:59:15.508Z</time>
      </trkpt>
      <trkpt lat="47.63982" lon="-2.94907">
        <ele>19.78</ele>
        <time>2021-07-27T07:59:24.808Z</time>
      </trkpt>
      <trkpt lat="47.63988" lon="-2.94924">
        <ele>18.94</ele>
        <time>2021-07-27T07:59:34.328Z</time>
      </trkpt>
      <trkpt lat="47.63996" lon="-2.94939">
        <ele>18.36</ele>
        <time>2021-07-27T07:59:43.677Z</time>
      </trkpt>
      <trkpt lat="47.64003" lon="-2.94951">
        <ele>18.23</ele>
        <time>2021-07-27T07:59:53.588Z</time>
      </trkpt>
      <trkpt lat="47.6401" lon="-2.94963">
        <ele>17.99</ele>
        <time>2021-07-27T08:00:03.000Z</time>
      </trkpt>
      <trkpt lat="47.64016" lon="-2.94967">
        <ele>17.63</ele>
        <time>2021-07-27T08:00:13.000Z</time>
      </trkpt>
      <trkpt lat="47.64017" lon="-2.94968">
        <ele>17.18</ele>
        <time>2021-07-27T08:00:27.628Z</time>
      </trkpt>
      <trkpt lat="47.64017" lon="-2.94969">
        <ele>14.86</ele>
        <time>2021-07-27T08:00:47.000Z</time>
      </trkpt>
      <trkpt lat="47.64017" lon="-2.94971">
        <ele>14.82</ele>
        <time>2021-07-27T08:00:56.589Z</time>
      </trkpt>
      <trkpt lat="47.64019" lon="-2.94977">
        <ele>15.14</ele>
        <time>2021-07-27T08:01:06.000Z</time>
      </trkpt>
      <trkpt lat="47.64019" lon="-2.94979">
        <ele>15.4</ele>
        <time>2021-07-27T08:01:16.000Z</time>
      </trkpt>
      <trkpt lat="47.64021" lon="-2.94984">
        <ele>14.67</ele>
        <time>2021-07-27T08:01:26.000Z</time>
      </trkpt>
      <trkpt lat="47.64022" lon="-2.94993">
        <ele>14.58</ele>
        <time>2021-07-27T08:01:35.447Z</time>
      </trkpt>
      <trkpt lat="47.64024" lon="-2.95006">
        <ele>14.48</ele>
        <time>2021-07-27T08:01:44.728Z</time>
      </trkpt>
      <trkpt lat="47.64026" lon="-2.95016">
        <ele>14.36</ele>
        <time>2021-07-27T08:01:54.000Z</time>
      </trkpt>
      <trkpt lat="47.64029" lon="-2.95024">
        <ele>14.2</ele>
        <time>2021-07-27T08:02:04.000Z</time>
      </trkpt>
      <trkpt lat="47.6403" lon="-2.9503">
        <ele>14.09</ele>
        <time>2021-07-27T08:02:13.687Z</time>
      </trkpt>
      <trkpt lat="47.64033" lon="-2.95041">
        <ele>14.29</ele>
        <time>2021-07-27T08:02:23.000Z</time>
      </trkpt>
      <trkpt lat="47.64037" lon="-2.95054">
        <ele>14.24</ele>
        <time>2021-07-27T08:02:32.227Z</time>
      </trkpt>
      <trkpt lat="47.64042" lon="-2.95064">
        <ele>14.08</ele>
        <time>2021-07-27T08:02:41.748Z</time>
      </trkpt>
      <trkpt lat="47.64047" lon="-2.95074">
        <ele>13.88</ele>
        <time>2021-07-27T08:02:51.000Z</time>
      </trkpt>
      <trkpt lat="47.64051" lon="-2.95086">
        <ele>13.84</ele>
        <time>2021-07-27T08:03:00.058Z</time>
      </trkpt>
      <trkpt lat="47.64055" lon="-2.95093">
        <ele>13.73</ele>
        <time>2021-07-27T08:03:09.448Z</time>
      </trkpt>
      <trkpt lat="47.64058" lon="-2.95099">
        <ele>13.62</ele>
        <time>2021-07-27T08:03:20.000Z</time>
      </trkpt>
      <trkpt lat="47.64062" lon="-2.95106">
        <ele>13.82</ele>
        <time>2021-07-27T08:03:29.883Z</time>
      </trkpt>
      <trkpt lat="47.64064" lon="-2.95112">
        <ele>13.54</ele>
        <time>2021-07-27T08:03:39.000Z</time>
      </trkpt>
      <trkpt lat="47.64066" lon="-2.95125">
        <ele>12.83</ele>
        <time>2021-07-27T08:03:48.365Z</time>
      </trkpt>
      <trkpt lat="47.64067" lon="-2.95135">
        <ele>9.58</ele>
        <time>2021-07-27T08:03:59.000Z</time>
      </trkpt>
      <trkpt lat="47.64068" lon="-2.95136">
        <ele>7.43</ele>
        <time>2021-07-27T08:04:09.000Z</time>
      </trkpt>
      <trkpt lat="47.64068" lon="-2.95136">
        <ele>6.77</ele>
        <time>2021-07-27T08:04:22.000Z</time>
      </trkpt>
      <trkpt lat="47.64069" lon="-2.9514">
        <ele>6.44</ele>
        <time>2021-07-27T08:04:32.000Z</time>
      </trkpt>
      <trkpt lat="47.64069" lon="-2.95145">
        <ele>6.17</ele>
        <time>2021-07-27T08:04:42.000Z</time>
      </trkpt>
      <trkpt lat="47.6407" lon="-2.95146">
        <ele>6.22</ele>
        <time>2021-07-27T08:04:52.000Z</time>
      </trkpt>
      <trkpt lat="47.64069" lon="-2.95144">
        <ele>6.18</ele>
        <time>2021-07-27T08:05:02.000Z</time>
      </trkpt>
      <trkpt lat="47.64066" lon="-2.95143">
        <ele>6.19</ele>
        <time>2021-07-27T08:05:12.000Z</time>
      </trkpt>
      <trkpt lat="47.6407" lon="-2.95141">
        <ele>6.07</ele>
        <time>2021-07-27T08:05:22.000Z</time>
      </trkpt>
      <trkpt lat="47.64071" lon="-2.95141">
        <ele>6.12</ele>
        <time>2021-07-27T08:05:44.000Z</time>
      </trkpt>
      <trkpt lat="47.64071" lon="-2.95142">
        <ele>6.67</ele>
        <time>2021-07-27T08:06:23.000Z</time>
      </trkpt>
      <trkpt lat="47.64073" lon="-2.95147">
        <ele>6.5</ele>
        <time>2021-07-27T08:06:33.000Z</time>
      </trkpt>
      <trkpt lat="47.64079" lon="-2.95161">
        <ele>6.19</ele>
        <time>2021-07-27T08:06:42.504Z</time>
      </trkpt>
      <trkpt lat="47.64078" lon="-2.95177">
        <ele>6.07</ele>
        <time>2021-07-27T08:06:52.264Z</time>
      </trkpt>
      <trkpt lat="47.64076" lon="-2.95193">
        <ele>6.02</ele>
        <time>2021-07-27T08:07:01.844Z</time>
      </trkpt>
      <trkpt lat="47.64075" lon="-2.95209">
        <ele>6.23</ele>
        <time>2021-07-27T08:07:11.245Z</time>
      </trkpt>
      <trkpt lat="47.64074" lon="-2.95223">
        <ele>5.73</ele>
        <time>2021-07-27T08:07:21.205Z</time>
      </trkpt>
      <trkpt lat="47.64074" lon="-2.95236">
        <ele>5.97</ele>
        <time>2021-07-27T08:07:30.664Z</time>
      </trkpt>
      <trkpt lat="47.64073" lon="-2.95252">
        <ele>5.71</ele>
        <time>2021-07-27T08:07:40.044Z</time>
      </trkpt>
      <trkpt lat="47.64072" lon="-2.95268">
        <ele>5.87</ele>
        <time>2021-07-27T08:07:49.346Z</time>
      </trkpt>
      <trkpt lat="47.64077" lon="-2.95283">
        <ele>5.76</ele>
        <time>2021-07-27T08:07:59.064Z</time>
      </trkpt>
      <trkpt lat="47.64082" lon="-2.95295">
        <ele>5.93</ele>
        <time>2021-07-27T08:08:09.000Z</time>
      </trkpt>
      <trkpt lat="47.64085" lon="-2.95296">
        <ele>7.47</ele>
        <time>2021-07-27T08:08:18.025Z</time>
      </trkpt>
      <trkpt lat="47.64088" lon="-2.95297">
        <ele>7.7</ele>
        <time>2021-07-27T08:08:28.000Z</time>
      </trkpt>
      <trkpt lat="47.64089" lon="-2.95297">
        <ele>10.48</ele>
        <time>2021-07-27T08:08:39.000Z</time>
      </trkpt>
      <trkpt lat="47.6409" lon="-2.95298">
        <ele>10.44</ele>
        <time>2021-07-27T08:08:48.364Z</time>
      </trkpt>
      <trkpt lat="47.64092" lon="-2.95299">
        <ele>10.56</ele>
        <time>2021-07-27T08:08:58.000Z</time>
      </trkpt>
      <trkpt lat="47.64093" lon="-2.953">
        <ele>10.44</ele>
        <time>2021-07-27T08:09:09.000Z</time>
      </trkpt>
      <trkpt lat="47.64093" lon="-2.95304">
        <ele>10.44</ele>
        <time>2021-07-27T08:09:19.000Z</time>
      </trkpt>
      <trkpt lat="47.64094" lon="-2.95303">
        <ele>10.41</ele>
        <time>2021-07-27T08:09:29.000Z</time>
      </trkpt>
      <trkpt lat="47.64095" lon="-2.95303">
        <ele>2.91</ele>
        <time>2021-07-27T08:09:41.000Z</time>
      </trkpt>
      <trkpt lat="47.64104" lon="-2.95304">
        <ele>-3.19</ele>
        <time>2021-07-27T08:09:51.000Z</time>
      </trkpt>
      <trkpt lat="47.64117" lon="-2.95303">
        <ele>13.58</ele>
        <time>2021-07-27T08:10:01.000Z</time>
      </trkpt>
      <trkpt lat="47.6413" lon="-2.95304">
        <ele>13.68</ele>
        <time>2021-07-27T08:10:10.589Z</time>
      </trkpt>
      <trkpt lat="47.64143" lon="-2.95304">
        <ele>13.8</ele>
        <time>2021-07-27T08:10:20.165Z</time>
      </trkpt>
      <trkpt lat="47.64155" lon="-2.95306">
        <ele>13.79</ele>
        <time>2021-07-27T08:10:29.186Z</time>
      </trkpt>
      <trkpt lat="47.64167" lon="-2.95308">
        <ele>13.9</ele>
        <time>2021-07-27T08:10:38.224Z</time>
      </trkpt>
      <trkpt lat="47.64178" lon="-2.95309">
        <ele>13.85</ele>
        <time>2021-07-27T08:10:47.724Z</time>
      </trkpt>
      <trkpt lat="47.64188" lon="-2.95307">
        <ele>13.81</ele>
        <time>2021-07-27T08:10:57.005Z</time>
      </trkpt>
      <trkpt lat="47.64202" lon="-2.95309">
        <ele>13.94</ele>
        <time>2021-07-27T08:11:06.905Z</time>
      </trkpt>
      <trkpt lat="47.64214" lon="-2.95306">
        <ele>10.72</ele>
        <time>2021-07-27T08:11:16.224Z</time>
      </trkpt>
      <trkpt lat="47.64224" lon="-2.95301">
        <ele>10.65</ele>
        <time>2021-07-27T08:11:25.264Z</time>
      </trkpt>
      <trkpt lat="47.64234" lon="-2.95298">
        <ele>8.97</ele>
        <time>2021-07-27T08:11:34.365Z</time>
      </trkpt>
      <trkpt lat="47.64245" lon="-2.95289">
        <ele>8.94</ele>
        <time>2021-07-27T08:11:44.265Z</time>
      </trkpt>
      <trkpt lat="47.64256" lon="-2.95282">
        <ele>8.75</ele>
        <time>2021-07-27T08:11:53.345Z</time>
      </trkpt>
      <trkpt lat="47.64268" lon="-2.95274">
        <ele>8.79</ele>
        <time>2021-07-27T08:12:03.105Z</time>
      </trkpt>
      <trkpt lat="47.64274" lon="-2.95261">
        <ele>11.25</ele>
        <time>2021-07-27T08:12:12.885Z</time>
      </trkpt>
      <trkpt lat="47.64281" lon="-2.95249">
        <ele>12.17</ele>
        <time>2021-07-27T08:12:22.135Z</time>
      </trkpt>
      <trkpt lat="47.64286" lon="-2.95238">
        <ele>12.1</ele>
        <time>2021-07-27T08:12:32.155Z</time>
      </trkpt>
      <trkpt lat="47.64295" lon="-2.95228">
        <ele>11.99</ele>
        <time>2021-07-27T08:12:41.934Z</time>
      </trkpt>
      <trkpt lat="47.64303" lon="-2.9522">
        <ele>11.91</ele>
        <time>2021-07-27T08:12:51.000Z</time>
      </trkpt>
      <trkpt lat="47.64314" lon="-2.95208">
        <ele>11.92</ele>
        <time>2021-07-27T08:13:01.106Z</time>
      </trkpt>
      <trkpt lat="47.64326" lon="-2.95194">
        <ele>11.99</ele>
        <time>2021-07-27T08:13:11.144Z</time>
      </trkpt>
      <trkpt lat="47.64335" lon="-2.95185">
        <ele>4.91</ele>
        <time>2021-07-27T08:13:21.000Z</time>
      </trkpt>
      <trkpt lat="47.64348" lon="-2.95172">
        <ele>-15.03</ele>
        <time>2021-07-27T08:13:30.235Z</time>
      </trkpt>
      <trkpt lat="47.64358" lon="-2.9516">
        <ele>6.78</ele>
        <time>2021-07-27T08:13:40.014Z</time>
      </trkpt>
      <trkpt lat="47.64368" lon="-2.95149">
        <ele>7.12</ele>
        <time>2021-07-27T08:13:49.305Z</time>
      </trkpt>
      <trkpt lat="47.64377" lon="-2.95134">
        <ele>-4.66</ele>
        <time>2021-07-27T08:13:59.025Z</time>
      </trkpt>
      <trkpt lat="47.64388" lon="-2.95124">
        <ele>-6.39</ele>
        <time>2021-07-27T08:14:08.325Z</time>
      </trkpt>
      <trkpt lat="47.64396" lon="-2.95109">
        <ele>9.19</ele>
        <time>2021-07-27T08:14:19.000Z</time>
      </trkpt>
      <trkpt lat="47.64407" lon="-2.95096">
        <ele>-1.61</ele>
        <time>2021-07-27T08:14:28.339Z</time>
      </trkpt>
      <trkpt lat="47.64415" lon="-2.95084">
        <ele>-13.22</ele>
        <time>2021-07-27T08:14:38.205Z</time>
      </trkpt>
      <trkpt lat="47.64427" lon="-2.95073">
        <ele>-9.17</ele>
        <time>2021-07-27T08:14:48.026Z</time>
      </trkpt>
      <trkpt lat="47.64436" lon="-2.9506">
        <ele>-13.32</ele>
        <time>2021-07-27T08:14:57.304Z</time>
      </trkpt>
      <trkpt lat="47.64447" lon="-2.95051">
        <ele>1.42</ele>
        <time>2021-07-27T08:15:06.844Z</time>
      </trkpt>
      <trkpt lat="47.64456" lon="-2.95039">
        <ele>8.39</ele>
        <time>2021-07-27T08:15:16.000Z</time>
      </trkpt>
      <trkpt lat="47.64464" lon="-2.95023">
        <ele>10.39</ele>
        <time>2021-07-27T08:15:26.000Z</time>
      </trkpt>
      <trkpt lat="47.64475" lon="-2.95013">
        <ele>10.66</ele>
        <time>2021-07-27T08:15:36.204Z</time>
      </trkpt>
      <trkpt lat="47.64484" lon="-2.95002">
        <ele>0.02</ele>
        <time>2021-07-27T08:15:46.005Z</time>
      </trkpt>
      <trkpt lat="47.64492" lon="-2.94991">
        <ele>0.04</ele>
        <time>2021-07-27T08:15:55.245Z</time>
      </trkpt>
      <trkpt lat="47.64501" lon="-2.94989">
        <ele>0.08</ele>
        <time>2021-07-27T08:16:04.318Z</time>
      </trkpt>
      <trkpt lat="47.64514" lon="-2.94982">
        <ele>0.01</ele>
        <time>2021-07-27T08:16:14.285Z</time>
      </trkpt>
      <trkpt lat="47.64521" lon="-2.9497">
        <ele>0.04</ele>
        <time>2021-07-27T08:16:24.000Z</time>
      </trkpt>
      <trkpt lat="47.64535" lon="-2.94962">
        <ele>-0.01</ele>
        <time>2021-07-27T08:16:34.125Z</time>
      </trkpt>
      <trkpt lat="47.64549" lon="-2.94954">
        <ele>-0.03</ele>
        <time>2021-07-27T08:16:45.000Z</time>
      </trkpt>
      <trkpt lat="47.64563" lon="-2.94949">
        <ele>-3.1</ele>
        <time>2021-07-27T08:16:55.000Z</time>
      </trkpt>
      <trkpt lat="47.64574" lon="-2.94946">
        <ele>6.45</ele>
        <time>2021-07-27T08:17:04.224Z</time>
      </trkpt>
      <trkpt lat="47.64585" lon="-2.94942">
        <ele>-23.63</ele>
        <time>2021-07-27T08:17:13.245Z</time>
      </trkpt>
      <trkpt lat="47.64594" lon="-2.94938">
        <ele>-13.53</ele>
        <time>2021-07-27T08:17:22.329Z</time>
      </trkpt>
      <trkpt lat="47.64609" lon="-2.94939">
        <ele>1.89</ele>
        <time>2021-07-27T08:17:32.065Z</time>
      </trkpt>
      <trkpt lat="47.64621" lon="-2.94941">
        <ele>1.12</ele>
        <time>2021-07-27T08:17:41.385Z</time>
      </trkpt>
      <trkpt lat="47.64632" lon="-2.94942">
        <ele>-6.68</ele>
        <time>2021-07-27T08:17:51.000Z</time>
      </trkpt>
      <trkpt lat="47.64644" lon="-2.94943">
        <ele>-17.42</ele>
        <time>2021-07-27T08:18:00.904Z</time>
      </trkpt>
      <trkpt lat="47.64657" lon="-2.94946">
        <ele>-1.89</ele>
        <time>2021-07-27T08:18:11.205Z</time>
      </trkpt>
      <trkpt lat="47.6467" lon="-2.94949">
        <ele>-6.05</ele>
        <time>2021-07-27T08:18:20.295Z</time>
      </trkpt>
      <trkpt lat="47.64679" lon="-2.9494">
        <ele>0.27</ele>
        <time>2021-07-27T08:18:30.000Z</time>
      </trkpt>
      <trkpt lat="47.64683" lon="-2.94929">
        <ele>0.28</ele>
        <time>2021-07-27T08:18:39.745Z</time>
      </trkpt>
      <trkpt lat="47.64686" lon="-2.94921">
        <ele>0.25</ele>
        <time>2021-07-27T08:18:48.785Z</time>
      </trkpt>
      <trkpt lat="47.64685" lon="-2.94915">
        <ele>7.23</ele>
        <time>2021-07-27T08:18:58.025Z</time>
      </trkpt>
      <trkpt lat="47.64684" lon="-2.94911">
        <ele>10.44</ele>
        <time>2021-07-27T08:19:07.365Z</time>
      </trkpt>
      <trkpt lat="47.64687" lon="-2.94907">
        <ele>-10.14</ele>
        <time>2021-07-27T08:19:16.865Z</time>
      </trkpt>
      <trkpt lat="47.64691" lon="-2.94902">
        <ele>10.95</ele>
        <time>2021-07-27T08:19:26.000Z</time>
      </trkpt>
      <trkpt lat="47.64697" lon="-2.94893">
        <ele>-4.81</ele>
        <time>2021-07-27T08:19:36.000Z</time>
      </trkpt>
      <trkpt lat="47.64704" lon="-2.94882">
        <ele>3.03</ele>
        <time>2021-07-27T08:19:46.000Z</time>
      </trkpt>
      <trkpt lat="47.64709" lon="-2.9487">
        <ele>9.49</ele>
        <time>2021-07-27T08:19:56.000Z</time>
      </trkpt>
      <trkpt lat="47.64713" lon="-2.94857">
        <ele>3.32</ele>
        <time>2021-07-27T08:20:05.885Z</time>
      </trkpt>
      <trkpt lat="47.64719" lon="-2.94847">
        <ele>17.53</ele>
        <time>2021-07-27T08:20:15.000Z</time>
      </trkpt>
      <trkpt lat="47.64728" lon="-2.94833">
        <ele>0.03</ele>
        <time>2021-07-27T08:20:24.205Z</time>
      </trkpt>
      <trkpt lat="47.64735" lon="-2.94825">
        <ele>1.41</ele>
        <time>2021-07-27T08:20:33.352Z</time>
      </trkpt>
      <trkpt lat="47.6474" lon="-2.94813">
        <ele>-4.35</ele>
        <time>2021-07-27T08:20:42.984Z</time>
      </trkpt>
      <trkpt lat="47.64746" lon="-2.94798">
        <ele>10.88</ele>
        <time>2021-07-27T08:20:52.085Z</time>
      </trkpt>
      <trkpt lat="47.64753" lon="-2.94786">
        <ele>6.51</ele>
        <time>2021-07-27T08:21:01.124Z</time>
      </trkpt>
      <trkpt lat="47.64763" lon="-2.94775">
        <ele>-12.96</ele>
        <time>2021-07-27T08:21:10.904Z</time>
      </trkpt>
      <trkpt lat="47.6477" lon="-2.94764">
        <ele>-6.04</ele>
        <time>2021-07-27T08:21:20.975Z</time>
      </trkpt>
      <trkpt lat="47.64778" lon="-2.94754">
        <ele>14.72</ele>
        <time>2021-07-27T08:21:30.000Z</time>
      </trkpt>
      <trkpt lat="47.64782" lon="-2.94741">
        <ele>5.95</ele>
        <time>2021-07-27T08:21:39.884Z</time>
      </trkpt>
      <trkpt lat="47.6478" lon="-2.94728">
        <ele>-9.09</ele>
        <time>2021-07-27T08:21:49.000Z</time>
      </trkpt>
      <trkpt lat="47.6478" lon="-2.94719">
        <ele>13.59</ele>
        <time>2021-07-27T08:21:59.329Z</time>
      </trkpt>
      <trkpt lat="47.64781" lon="-2.94707">
        <ele>-4.09</ele>
        <time>2021-07-27T08:22:09.175Z</time>
      </trkpt>
      <trkpt lat="47.64783" lon="-2.94695">
        <ele>-1.35</ele>
        <time>2021-07-27T08:22:18.224Z</time>
      </trkpt>
      <trkpt lat="47.64787" lon="-2.94682">
        <ele>6.42</ele>
        <time>2021-07-27T08:22:28.085Z</time>
      </trkpt>
      <trkpt lat="47.64794" lon="-2.94661">
        <ele>0.03</ele>
        <time>2021-07-27T08:22:39.000Z</time>
      </trkpt>
      <trkpt lat="47.64799" lon="-2.94646">
        <ele>-9.59</ele>
        <time>2021-07-27T08:22:48.954Z</time>
      </trkpt>
      <trkpt lat="47.648" lon="-2.94635">
        <ele>13.81</ele>
        <time>2021-07-27T08:22:58.000Z</time>
      </trkpt>
      <trkpt lat="47.64803" lon="-2.94621">
        <ele>10.58</ele>
        <time>2021-07-27T08:23:08.005Z</time>
      </trkpt>
      <trkpt lat="47.64806" lon="-2.94611">
        <ele>-1.51</ele>
        <time>2021-07-27T08:23:17.205Z</time>
      </trkpt>
      <trkpt lat="47.64808" lon="-2.94602">
        <ele>4.12</ele>
        <time>2021-07-27T08:23:27.285Z</time>
      </trkpt>
      <trkpt lat="47.64809" lon="-2.94592">
        <ele>1.46</ele>
        <time>2021-07-27T08:23:37.085Z</time>
      </trkpt>
      <trkpt lat="47.64808" lon="-2.94582">
        <ele>-5.1</ele>
        <time>2021-07-27T08:23:47.000Z</time>
      </trkpt>
      <trkpt lat="47.64809" lon="-2.94576">
        <ele>-12.67</ele>
        <time>2021-07-27T08:23:56.029Z</time>
      </trkpt>
      <trkpt lat="47.6481" lon="-2.9456">
        <ele>7.69</ele>
        <time>2021-07-27T08:24:05.487Z</time>
      </trkpt>
      <trkpt lat="47.64818" lon="-2.94544">
        <ele>13.37</ele>
        <time>2021-07-27T08:24:15.000Z</time>
      </trkpt>
      <trkpt lat="47.64823" lon="-2.94528">
        <ele>-0.71</ele>
        <time>2021-07-27T08:24:25.000Z</time>
      </trkpt>
      <trkpt lat="47.64826" lon="-2.94516">
        <ele>9.84</ele>
        <time>2021-07-27T08:24:34.146Z</time>
      </trkpt>
      <trkpt lat="47.64832" lon="-2.94501">
        <ele>2.24</ele>
        <time>2021-07-27T08:24:43.497Z</time>
      </trkpt>
      <trkpt lat="47.64839" lon="-2.94486">
        <ele>-5.66</ele>
        <time>2021-07-27T08:24:52.736Z</time>
      </trkpt>
      <trkpt lat="47.64843" lon="-2.94474">
        <ele>4.58</ele>
        <time>2021-07-27T08:25:02.247Z</time>
      </trkpt>
      <trkpt lat="47.64839" lon="-2.9446">
        <ele>3.94</ele>
        <time>2021-07-27T08:25:11.376Z</time>
      </trkpt>
      <trkpt lat="47.64833" lon="-2.94452">
        <ele>2.67</ele>
        <time>2021-07-27T08:25:20.568Z</time>
      </trkpt>
      <trkpt lat="47.64828" lon="-2.94443">
        <ele>-0.32</ele>
        <time>2021-07-27T08:25:30.126Z</time>
      </trkpt>
      <trkpt lat="47.64831" lon="-2.94439">
        <ele>-2.75</ele>
        <time>2021-07-27T08:25:39.638Z</time>
      </trkpt>
      <trkpt lat="47.64833" lon="-2.94433">
        <ele>11.07</ele>
        <time>2021-07-27T08:25:48.658Z</time>
      </trkpt>
      <trkpt lat="47.64841" lon="-2.94419">
        <ele>2.17</ele>
        <time>2021-07-27T08:25:57.676Z</time>
      </trkpt>
      <trkpt lat="47.64848" lon="-2.94421">
        <ele>-18.54</ele>
        <time>2021-07-27T08:26:08.000Z</time>
      </trkpt>
      <trkpt lat="47.64858" lon="-2.94413">
        <ele>5.72</ele>
        <time>2021-07-27T08:26:17.809Z</time>
      </trkpt>
      <trkpt lat="47.64864" lon="-2.94408">
        <ele>-6.55</ele>
        <time>2021-07-27T08:26:27.000Z</time>
      </trkpt>
      <trkpt lat="47.64872" lon="-2.94398">
        <ele>-12.44</ele>
        <time>2021-07-27T08:26:36.127Z</time>
      </trkpt>
      <trkpt lat="47.64879" lon="-2.94386">
        <ele>-19.85</ele>
        <time>2021-07-27T08:26:45.646Z</time>
      </trkpt>
      <trkpt lat="47.64887" lon="-2.94377">
        <ele>3.88</ele>
        <time>2021-07-27T08:26:55.000Z</time>
      </trkpt>
      <trkpt lat="47.64892" lon="-2.94358">
        <ele>-11.04</ele>
        <time>2021-07-27T08:27:05.000Z</time>
      </trkpt>
      <trkpt lat="47.64898" lon="-2.94352">
        <ele>-3.38</ele>
        <time>2021-07-27T08:27:14.430Z</time>
      </trkpt>
      <trkpt lat="47.64902" lon="-2.94341">
        <ele>-4.58</ele>
        <time>2021-07-27T08:27:23.527Z</time>
      </trkpt>
      <trkpt lat="47.64909" lon="-2.94325">
        <ele>1.9</ele>
        <time>2021-07-27T08:27:32.587Z</time>
      </trkpt>
      <trkpt lat="47.64918" lon="-2.9431">
        <ele>8.37</ele>
        <time>2021-07-27T08:27:41.846Z</time>
      </trkpt>
      <trkpt lat="47.64924" lon="-2.94304">
        <ele>-14.45</ele>
        <time>2021-07-27T08:27:51.688Z</time>
      </trkpt>
      <trkpt lat="47.64928" lon="-2.94295">
        <ele>-9.44</ele>
        <time>2021-07-27T08:28:01.467Z</time>
      </trkpt>
      <trkpt lat="47.64936" lon="-2.94277">
        <ele>5.78</ele>
        <time>2021-07-27T08:28:12.000Z</time>
      </trkpt>
      <trkpt lat="47.64945" lon="-2.94266">
        <ele>11.31</ele>
        <time>2021-07-27T08:28:21.554Z</time>
      </trkpt>
      <trkpt lat="47.64952" lon="-2.94256">
        <ele>-0.68</ele>
        <time>2021-07-27T08:28:31.000Z</time>
      </trkpt>
      <trkpt lat="47.64958" lon="-2.94247">
        <ele>1.24</ele>
        <time>2021-07-27T08:28:40.432Z</time>
      </trkpt>
      <trkpt lat="47.64964" lon="-2.94234">
        <ele>9.04</ele>
        <time>2021-07-27T08:28:49.486Z</time>
      </trkpt>
      <trkpt lat="47.64964" lon="-2.94218">
        <ele>-7.71</ele>
        <time>2021-07-27T08:28:58.587Z</time>
      </trkpt>
      <trkpt lat="47.64968" lon="-2.94208">
        <ele>4.62</ele>
        <time>2021-07-27T08:29:08.000Z</time>
      </trkpt>
      <trkpt lat="47.64977" lon="-2.94204">
        <ele>-5.74</ele>
        <time>2021-07-27T08:29:19.000Z</time>
      </trkpt>
      <trkpt lat="47.64982" lon="-2.94199">
        <ele>8.3</ele>
        <time>2021-07-27T08:29:28.608Z</time>
      </trkpt>
      <trkpt lat="47.64989" lon="-2.94187">
        <ele>13.13</ele>
        <time>2021-07-27T08:29:38.767Z</time>
      </trkpt>
      <trkpt lat="47.65002" lon="-2.94174">
        <ele>-10.37</ele>
        <time>2021-07-27T08:29:48.167Z</time>
      </trkpt>
      <trkpt lat="47.6501" lon="-2.94164">
        <ele>-4.49</ele>
        <time>2021-07-27T08:29:59.000Z</time>
      </trkpt>
      <trkpt lat="47.65019" lon="-2.94149">
        <ele>-2.69</ele>
        <time>2021-07-27T08:30:08.116Z</time>
      </trkpt>
      <trkpt lat="47.65025" lon="-2.94139">
        <ele>-1.38</ele>
        <time>2021-07-27T08:30:17.587Z</time>
      </trkpt>
      <trkpt lat="47.65029" lon="-2.94129">
        <ele>10.05</ele>
        <time>2021-07-27T08:30:27.518Z</time>
      </trkpt>
      <trkpt lat="47.65038" lon="-2.94117">
        <ele>-20.57</ele>
        <time>2021-07-27T08:30:37.687Z</time>
      </trkpt>
      <trkpt lat="47.65045" lon="-2.94102">
        <ele>-3.49</ele>
        <time>2021-07-27T08:30:48.000Z</time>
      </trkpt>
      <trkpt lat="47.6505" lon="-2.94088">
        <ele>0.83</ele>
        <time>2021-07-27T08:30:57.306Z</time>
      </trkpt>
      <trkpt lat="47.65056" lon="-2.94073">
        <ele>1.47</ele>
        <time>2021-07-27T08:31:06.827Z</time>
      </trkpt>
      <trkpt lat="47.6506" lon="-2.94061">
        <ele>-3.03</ele>
        <time>2021-07-27T08:31:17.000Z</time>
      </trkpt>
      <trkpt lat="47.65064" lon="-2.9405">
        <ele>-10.89</ele>
        <time>2021-07-27T08:31:28.000Z</time>
      </trkpt>
      <trkpt lat="47.65072" lon="-2.94036">
        <ele>0.39</ele>
        <time>2021-07-27T08:31:38.000Z</time>
      </trkpt>
      <trkpt lat="47.65078" lon="-2.94028">
        <ele>-5.67</ele>
        <time>2021-07-27T08:31:48.000Z</time>
      </trkpt>
      <trkpt lat="47.65087" lon="-2.94014">
        <ele>6.75</ele>
        <time>2021-07-27T08:31:57.187Z</time>
      </trkpt>
      <trkpt lat="47.65092" lon="-2.94">
        <ele>14.27</ele>
        <time>2021-07-27T08:32:06.647Z</time>
      </trkpt>
      <trkpt lat="47.65097" lon="-2.93989">
        <ele>-1.76</ele>
        <time>2021-07-27T08:32:16.247Z</time>
      </trkpt>
      <trkpt lat="47.65101" lon="-2.93973">
        <ele>3.51</ele>
        <time>2021-07-27T08:32:27.000Z</time>
      </trkpt>
      <trkpt lat="47.65101" lon="-2.93957">
        <ele>0.77</ele>
        <time>2021-07-27T08:32:37.000Z</time>
      </trkpt>
      <trkpt lat="47.6511" lon="-2.93942">
        <ele>4.18</ele>
        <time>2021-07-27T08:32:46.746Z</time>
      </trkpt>
      <trkpt lat="47.65116" lon="-2.9393">
        <ele>-2.95</ele>
        <time>2021-07-27T08:32:57.000Z</time>
      </trkpt>
      <trkpt lat="47.65123" lon="-2.93915">
        <ele>-9.99</ele>
        <time>2021-07-27T08:33:07.000Z</time>
      </trkpt>
      <trkpt lat="47.65129" lon="-2.93901">
        <ele>-4.18</ele>
        <time>2021-07-27T08:33:16.607Z</time>
      </trkpt>
      <trkpt lat="47.65134" lon="-2.93881">
        <ele>-5.46</ele>
        <time>2021-07-27T08:33:26.748Z</time>
      </trkpt>
      <trkpt lat="47.65131" lon="-2.93867">
        <ele>-5.11</ele>
        <time>2021-07-27T08:33:36.528Z</time>
      </trkpt>
      <trkpt lat="47.65127" lon="-2.93847">
        <ele>-5.23</ele>
        <time>2021-07-27T08:33:46.507Z</time>
      </trkpt>
      <trkpt lat="47.65123" lon="-2.93832">
        <ele>-8.55</ele>
        <time>2021-07-27T08:33:55.627Z</time>
      </trkpt>
      <trkpt lat="47.65121" lon="-2.93816">
        <ele>1.05</ele>
        <time>2021-07-27T08:34:07.000Z</time>
      </trkpt>
      <trkpt lat="47.65117" lon="-2.938">
        <ele>-5.15</ele>
        <time>2021-07-27T08:34:17.000Z</time>
      </trkpt>
      <trkpt lat="47.65114" lon="-2.93787">
        <ele>-10.99</ele>
        <time>2021-07-27T08:34:26.748Z</time>
      </trkpt>
      <trkpt lat="47.6511" lon="-2.93773">
        <ele>-21.21</ele>
        <time>2021-07-27T08:34:36.000Z</time>
      </trkpt>
      <trkpt lat="47.65108" lon="-2.93758">
        <ele>-1.77</ele>
        <time>2021-07-27T08:34:45.426Z</time>
      </trkpt>
      <trkpt lat="47.65104" lon="-2.93744">
        <ele>-6.14</ele>
        <time>2021-07-27T08:34:55.328Z</time>
      </trkpt>
      <trkpt lat="47.65099" lon="-2.93731">
        <ele>1.88</ele>
        <time>2021-07-27T08:35:04.707Z</time>
      </trkpt>
      <trkpt lat="47.65095" lon="-2.93719">
        <ele>-5.41</ele>
        <time>2021-07-27T08:35:15.000Z</time>
      </trkpt>
      <trkpt lat="47.6509" lon="-2.93695">
        <ele>-3.2</ele>
        <time>2021-07-27T08:35:24.327Z</time>
      </trkpt>
      <trkpt lat="47.6509" lon="-2.93675">
        <ele>5.64</ele>
        <time>2021-07-27T08:35:33.736Z</time>
      </trkpt>
      <trkpt lat="47.65094" lon="-2.93654">
        <ele>-9.16</ele>
        <time>2021-07-27T08:35:43.217Z</time>
      </trkpt>
      <trkpt lat="47.65099" lon="-2.93635">
        <ele>2.4</ele>
        <time>2021-07-27T08:35:52.527Z</time>
      </trkpt>
      <trkpt lat="47.65103" lon="-2.93618">
        <ele>21.59</ele>
        <time>2021-07-27T08:36:01.607Z</time>
      </trkpt>
      <trkpt lat="47.65108" lon="-2.93605">
        <ele>13.37</ele>
        <time>2021-07-27T08:36:11.000Z</time>
      </trkpt>
      <trkpt lat="47.65115" lon="-2.9359">
        <ele>3.84</ele>
        <time>2021-07-27T08:36:22.000Z</time>
      </trkpt>
      <trkpt lat="47.65122" lon="-2.93575">
        <ele>13.33</ele>
        <time>2021-07-27T08:36:31.786Z</time>
      </trkpt>
      <trkpt lat="47.65126" lon="-2.9356">
        <ele>6.2</ele>
        <time>2021-07-27T08:36:40.826Z</time>
      </trkpt>
      <trkpt lat="47.65127" lon="-2.93542">
        <ele>11.42</ele>
        <time>2021-07-27T08:36:50.237Z</time>
      </trkpt>
      <trkpt lat="47.65131" lon="-2.93527">
        <ele>16.73</ele>
        <time>2021-07-27T08:36:59.596Z</time>
      </trkpt>
      <trkpt lat="47.65135" lon="-2.93512">
        <ele>12.67</ele>
        <time>2021-07-27T08:37:09.126Z</time>
      </trkpt>
      <trkpt lat="47.65138" lon="-2.93498">
        <ele>6.75</ele>
        <time>2021-07-27T08:37:18.787Z</time>
      </trkpt>
      <trkpt lat="47.65139" lon="-2.93489">
        <ele>15.17</ele>
        <time>2021-07-27T08:37:29.000Z</time>
      </trkpt>
      <trkpt lat="47.65142" lon="-2.93469">
        <ele>10.83</ele>
        <time>2021-07-27T08:37:38.688Z</time>
      </trkpt>
      <trkpt lat="47.65147" lon="-2.93454">
        <ele>6.67</ele>
        <time>2021-07-27T08:37:48.000Z</time>
      </trkpt>
      <trkpt lat="47.65154" lon="-2.93438">
        <ele>2.54</ele>
        <time>2021-07-27T08:37:57.787Z</time>
      </trkpt>
      <trkpt lat="47.65159" lon="-2.93426">
        <ele>-0.93</ele>
        <time>2021-07-27T08:38:07.247Z</time>
      </trkpt>
      <trkpt lat="47.65163" lon="-2.9341">
        <ele>-0.16</ele>
        <time>2021-07-27T08:38:16.706Z</time>
      </trkpt>
      <trkpt lat="47.65169" lon="-2.93394">
        <ele>0.99</ele>
        <time>2021-07-27T08:38:25.838Z</time>
      </trkpt>
      <trkpt lat="47.65174" lon="-2.93382">
        <ele>13.08</ele>
        <time>2021-07-27T08:38:36.000Z</time>
      </trkpt>
      <trkpt lat="47.65179" lon="-2.93367">
        <ele>-2.16</ele>
        <time>2021-07-27T08:38:45.308Z</time>
      </trkpt>
      <trkpt lat="47.65184" lon="-2.9335">
        <ele>-21</ele>
        <time>2021-07-27T08:38:54.427Z</time>
      </trkpt>
      <trkpt lat="47.6519" lon="-2.93339">
        <ele>-0.03</ele>
        <time>2021-07-27T08:39:03.566Z</time>
      </trkpt>
      <trkpt lat="47.65192" lon="-2.93323">
        <ele>-1.42</ele>
        <time>2021-07-27T08:39:14.000Z</time>
      </trkpt>
      <trkpt lat="47.65192" lon="-2.93302">
        <ele>-19.8</ele>
        <time>2021-07-27T08:39:23.786Z</time>
      </trkpt>
      <trkpt lat="47.65187" lon="-2.93283">
        <ele>-6.35</ele>
        <time>2021-07-27T08:39:33.087Z</time>
      </trkpt>
      <trkpt lat="47.65182" lon="-2.93267">
        <ele>6.21</ele>
        <time>2021-07-27T08:39:42.648Z</time>
      </trkpt>
      <trkpt lat="47.65177" lon="-2.93249">
        <ele>-9.06</ele>
        <time>2021-07-27T08:39:52.432Z</time>
      </trkpt>
      <trkpt lat="47.65171" lon="-2.93236">
        <ele>3.8</ele>
        <time>2021-07-27T08:40:02.430Z</time>
      </trkpt>
      <trkpt lat="47.65166" lon="-2.93226">
        <ele>-0.6</ele>
        <time>2021-07-27T08:40:11.447Z</time>
      </trkpt>
      <trkpt lat="47.6516" lon="-2.93211">
        <ele>-4.18</ele>
        <time>2021-07-27T08:40:20.488Z</time>
      </trkpt>
      <trkpt lat="47.65153" lon="-2.93198">
        <ele>-4.11</ele>
        <time>2021-07-27T08:40:30.000Z</time>
      </trkpt>
      <trkpt lat="47.65144" lon="-2.93193">
        <ele>-10.99</ele>
        <time>2021-07-27T08:40:39.628Z</time>
      </trkpt>
      <trkpt lat="47.65138" lon="-2.93192">
        <ele>1.91</ele>
        <time>2021-07-27T08:40:49.000Z</time>
      </trkpt>
      <trkpt lat="47.6513" lon="-2.93187">
        <ele>-4.62</ele>
        <time>2021-07-27T08:40:58.587Z</time>
      </trkpt>
      <trkpt lat="47.65123" lon="-2.93175">
        <ele>-4.88</ele>
        <time>2021-07-27T08:41:09.000Z</time>
      </trkpt>
      <trkpt lat="47.65112" lon="-2.93165">
        <ele>12.33</ele>
        <time>2021-07-27T08:41:19.107Z</time>
      </trkpt>
      <trkpt lat="47.65106" lon="-2.93159">
        <ele>-12.84</ele>
        <time>2021-07-27T08:41:28.748Z</time>
      </trkpt>
      <trkpt lat="47.65096" lon="-2.93151">
        <ele>13.14</ele>
        <time>2021-07-27T08:41:39.000Z</time>
      </trkpt>
      <trkpt lat="47.65083" lon="-2.9314">
        <ele>5.14</ele>
        <time>2021-07-27T08:41:48.426Z</time>
      </trkpt>
      <trkpt lat="47.65069" lon="-2.93133">
        <ele>5.1</ele>
        <time>2021-07-27T08:41:58.027Z</time>
      </trkpt>
      <trkpt lat="47.65059" lon="-2.93125">
        <ele>5.13</ele>
        <time>2021-07-27T08:42:07.557Z</time>
      </trkpt>
      <trkpt lat="47.65052" lon="-2.9312">
        <ele>5.1</ele>
        <time>2021-07-27T08:42:17.000Z</time>
      </trkpt>
      <trkpt lat="47.6504" lon="-2.93116">
        <ele>5.28</ele>
        <time>2021-07-27T08:42:26.586Z</time>
      </trkpt>
      <trkpt lat="47.65031" lon="-2.9311">
        <ele>5.29</ele>
        <time>2021-07-27T08:42:36.308Z</time>
      </trkpt>
      <trkpt lat="47.65023" lon="-2.93109">
        <ele>5.18</ele>
        <time>2021-07-27T08:42:47.000Z</time>
      </trkpt>
      <trkpt lat="47.65021" lon="-2.93109">
        <ele>5.05</ele>
        <time>2021-07-27T08:42:57.000Z</time>
      </trkpt>
      <trkpt lat="47.6502" lon="-2.93109">
        <ele>4.85</ele>
        <time>2021-07-27T08:43:08.000Z</time>
      </trkpt>
      <trkpt lat="47.65015" lon="-2.9311">
        <ele>-10.42</ele>
        <time>2021-07-27T08:43:18.000Z</time>
      </trkpt>
      <trkpt lat="47.65005" lon="-2.93105">
        <ele>-0.63</ele>
        <time>2021-07-27T08:43:27.197Z</time>
      </trkpt>
      <trkpt lat="47.64996" lon="-2.93092">
        <ele>0.11</ele>
        <time>2021-07-27T08:43:36.548Z</time>
      </trkpt>
      <trkpt lat="47.64993" lon="-2.93081">
        <ele>0.23</ele>
        <time>2021-07-27T08:43:46.000Z</time>
      </trkpt>
      <trkpt lat="47.64983" lon="-2.93067">
        <ele>0.33</ele>
        <time>2021-07-27T08:43:55.786Z</time>
      </trkpt>
      <trkpt lat="47.64975" lon="-2.93056">
        <ele>0.26</ele>
        <time>2021-07-27T08:44:05.187Z</time>
      </trkpt>
      <trkpt lat="47.64967" lon="-2.93043">
        <ele>-0.27</ele>
        <time>2021-07-27T08:44:14.439Z</time>
      </trkpt>
      <trkpt lat="47.6496" lon="-2.93034">
        <ele>-0.38</ele>
        <time>2021-07-27T08:44:24.000Z</time>
      </trkpt>
      <trkpt lat="47.64954" lon="-2.93018">
        <ele>2.56</ele>
        <time>2021-07-27T08:44:33.709Z</time>
      </trkpt>
      <trkpt lat="47.64948" lon="-2.93004">
        <ele>2.64</ele>
        <time>2021-07-27T08:44:43.167Z</time>
      </trkpt>
      <trkpt lat="47.64945" lon="-2.92988">
        <ele>1.06</ele>
        <time>2021-07-27T08:44:52.588Z</time>
      </trkpt>
      <trkpt lat="47.64942" lon="-2.92986">
        <ele>0.24</ele>
        <time>2021-07-27T08:45:01.607Z</time>
      </trkpt>
      <trkpt lat="47.64935" lon="-2.92976">
        <ele>-0.28</ele>
        <time>2021-07-27T08:45:11.000Z</time>
      </trkpt>
      <trkpt lat="47.64923" lon="-2.92977">
        <ele>-0.46</ele>
        <time>2021-07-27T08:45:21.000Z</time>
      </trkpt>
      <trkpt lat="47.6492" lon="-2.92984">
        <ele>-0.35</ele>
        <time>2021-07-27T08:45:30.206Z</time>
      </trkpt>
      <trkpt lat="47.64935" lon="-2.9299">
        <ele>-0.32</ele>
        <time>2021-07-27T08:45:39.638Z</time>
      </trkpt>
      <trkpt lat="47.64944" lon="-2.92982">
        <ele>-0.24</ele>
        <time>2021-07-27T08:45:49.517Z</time>
      </trkpt>
      <trkpt lat="47.64946" lon="-2.92964">
        <ele>-0.2</ele>
        <time>2021-07-27T08:45:59.417Z</time>
      </trkpt>
      <trkpt lat="47.64948" lon="-2.9295">
        <ele>-0.22</ele>
        <time>2021-07-27T08:46:09.000Z</time>
      </trkpt>
      <trkpt lat="47.64939" lon="-2.92946">
        <ele>-0.3</ele>
        <time>2021-07-27T08:46:18.637Z</time>
      </trkpt>
      <trkpt lat="47.64932" lon="-2.92949">
        <ele>-0.35</ele>
        <time>2021-07-27T08:46:27.697Z</time>
      </trkpt>
      <trkpt lat="47.64926" lon="-2.92953">
        <ele>-0.5</ele>
        <time>2021-07-27T08:46:37.376Z</time>
      </trkpt>
      <trkpt lat="47.64916" lon="-2.92959">
        <ele>-0.59</ele>
        <time>2021-07-27T08:46:46.879Z</time>
      </trkpt>
      <trkpt lat="47.64912" lon="-2.92974">
        <ele>-0.47</ele>
        <time>2021-07-27T08:46:56.497Z</time>
      </trkpt>
      <trkpt lat="47.64898" lon="-2.92979">
        <ele>-0.39</ele>
        <time>2021-07-27T08:47:06.506Z</time>
      </trkpt>
      <trkpt lat="47.64887" lon="-2.92982">
        <ele>-0.23</ele>
        <time>2021-07-27T08:47:16.000Z</time>
      </trkpt>
      <trkpt lat="47.64877" lon="-2.93001">
        <ele>-0.26</ele>
        <time>2021-07-27T08:47:25.617Z</time>
      </trkpt>
      <trkpt lat="47.64867" lon="-2.93012">
        <ele>1.32</ele>
        <time>2021-07-27T08:47:35.000Z</time>
      </trkpt>
      <trkpt lat="47.64853" lon="-2.93009">
        <ele>2.27</ele>
        <time>2021-07-27T08:47:44.678Z</time>
      </trkpt>
      <trkpt lat="47.64848" lon="-2.92994">
        <ele>3.63</ele>
        <time>2021-07-27T08:47:54.000Z</time>
      </trkpt>
      <trkpt lat="47.64839" lon="-2.9298">
        <ele>4.76</ele>
        <time>2021-07-27T08:48:03.567Z</time>
      </trkpt>
      <trkpt lat="47.64831" lon="-2.92966">
        <ele>5.11</ele>
        <time>2021-07-27T08:48:12.576Z</time>
      </trkpt>
      <trkpt lat="47.64825" lon="-2.92952">
        <ele>5.22</ele>
        <time>2021-07-27T08:48:21.697Z</time>
      </trkpt>
      <trkpt lat="47.64818" lon="-2.92936">
        <ele>6.79</ele>
        <time>2021-07-27T08:48:31.218Z</time>
      </trkpt>
      <trkpt lat="47.64813" lon="-2.92918">
        <ele>4.39</ele>
        <time>2021-07-27T08:48:40.577Z</time>
      </trkpt>
      <trkpt lat="47.64805" lon="-2.92908">
        <ele>2.33</ele>
        <time>2021-07-27T08:48:49.637Z</time>
      </trkpt>
      <trkpt lat="47.64793" lon="-2.92907">
        <ele>1.9</ele>
        <time>2021-07-27T08:48:58.718Z</time>
      </trkpt>
      <trkpt lat="47.64786" lon="-2.92896">
        <ele>-0.25</ele>
        <time>2021-07-27T08:49:09.000Z</time>
      </trkpt>
      <trkpt lat="47.64777" lon="-2.92889">
        <ele>0.15</ele>
        <time>2021-07-27T08:49:19.000Z</time>
      </trkpt>
      <trkpt lat="47.64764" lon="-2.92892">
        <ele>3.17</ele>
        <time>2021-07-27T08:49:30.000Z</time>
      </trkpt>
      <trkpt lat="47.64752" lon="-2.92899">
        <ele>10.26</ele>
        <time>2021-07-27T08:49:39.676Z</time>
      </trkpt>
      <trkpt lat="47.64741" lon="-2.92904">
        <ele>10.28</ele>
        <time>2021-07-27T08:49:48.798Z</time>
      </trkpt>
      <trkpt lat="47.64729" lon="-2.92907">
        <ele>10.06</ele>
        <time>2021-07-27T08:49:58.464Z</time>
      </trkpt>
      <trkpt lat="47.64726" lon="-2.9292">
        <ele>10.18</ele>
        <time>2021-07-27T08:50:08.000Z</time>
      </trkpt>
      <trkpt lat="47.6473" lon="-2.92939">
        <ele>10.31</ele>
        <time>2021-07-27T08:50:17.437Z</time>
      </trkpt>
      <trkpt lat="47.64734" lon="-2.92952">
        <ele>10.2</ele>
        <time>2021-07-27T08:50:26.905Z</time>
      </trkpt>
      <trkpt lat="47.64734" lon="-2.92953">
        <ele>10.38</ele>
        <time>2021-07-27T08:50:36.000Z</time>
      </trkpt>
      <trkpt lat="47.64735" lon="-2.92952">
        <ele>10.17</ele>
        <time>2021-07-27T08:50:48.129Z</time>
      </trkpt>
      <trkpt lat="47.6474" lon="-2.92965">
        <ele>10.31</ele>
        <time>2021-07-27T08:50:57.509Z</time>
      </trkpt>
      <trkpt lat="47.64744" lon="-2.92979">
        <ele>10.23</ele>
        <time>2021-07-27T08:51:07.000Z</time>
      </trkpt>
      <trkpt lat="47.64749" lon="-2.92989">
        <ele>10.21</ele>
        <time>2021-07-27T08:51:17.000Z</time>
      </trkpt>
      <trkpt lat="47.64743" lon="-2.92973">
        <ele>10.2</ele>
        <time>2021-07-27T08:51:26.589Z</time>
      </trkpt>
      <trkpt lat="47.64736" lon="-2.92957">
        <ele>10.15</ele>
        <time>2021-07-27T08:51:35.912Z</time>
      </trkpt>
      <trkpt lat="47.64733" lon="-2.92942">
        <ele>10.24</ele>
        <time>2021-07-27T08:51:45.628Z</time>
      </trkpt>
      <trkpt lat="47.64729" lon="-2.92926">
        <ele>10.3</ele>
        <time>2021-07-27T08:51:56.000Z</time>
      </trkpt>
      <trkpt lat="47.64725" lon="-2.92907">
        <ele>10.35</ele>
        <time>2021-07-27T08:52:05.658Z</time>
      </trkpt>
      <trkpt lat="47.64722" lon="-2.92891">
        <ele>10.19</ele>
        <time>2021-07-27T08:52:14.809Z</time>
      </trkpt>
      <trkpt lat="47.6472" lon="-2.92885">
        <ele>10.23</ele>
        <time>2021-07-27T08:52:24.788Z</time>
      </trkpt>
      <trkpt lat="47.64719" lon="-2.92866">
        <ele>11.21</ele>
        <time>2021-07-27T08:52:34.529Z</time>
      </trkpt>
      <trkpt lat="47.64714" lon="-2.92859">
        <ele>11.54</ele>
        <time>2021-07-27T08:52:43.849Z</time>
      </trkpt>
      <trkpt lat="47.64707" lon="-2.92849">
        <ele>11.71</ele>
        <time>2021-07-27T08:52:54.000Z</time>
      </trkpt>
      <trkpt lat="47.64701" lon="-2.92833">
        <ele>11.88</ele>
        <time>2021-07-27T08:53:03.868Z</time>
      </trkpt>
      <trkpt lat="47.64694" lon="-2.92821">
        <ele>11.9</ele>
        <time>2021-07-27T08:53:13.850Z</time>
      </trkpt>
      <trkpt lat="47.64687" lon="-2.92808">
        <ele>12.01</ele>
        <time>2021-07-27T08:53:23.371Z</time>
      </trkpt>
      <trkpt lat="47.64682" lon="-2.92797">
        <ele>12.05</ele>
        <time>2021-07-27T08:53:32.789Z</time>
      </trkpt>
      <trkpt lat="47.64676" lon="-2.92783">
        <ele>12.09</ele>
        <time>2021-07-27T08:53:42.000Z</time>
      </trkpt>
      <trkpt lat="47.64669" lon="-2.92765">
        <ele>12.08</ele>
        <time>2021-07-27T08:53:51.529Z</time>
      </trkpt>
      <trkpt lat="47.64663" lon="-2.92753">
        <ele>12.08</ele>
        <time>2021-07-27T08:54:00.829Z</time>
      </trkpt>
      <trkpt lat="47.64656" lon="-2.92737">
        <ele>2.51</ele>
        <time>2021-07-27T08:54:12.000Z</time>
      </trkpt>
      <trkpt lat="47.64647" lon="-2.92717">
        <ele>1.11</ele>
        <time>2021-07-27T08:54:21.539Z</time>
      </trkpt>
      <trkpt lat="47.64641" lon="-2.92704">
        <ele>3.98</ele>
        <time>2021-07-27T08:54:30.668Z</time>
      </trkpt>
      <trkpt lat="47.64634" lon="-2.92693">
        <ele>12.6</ele>
        <time>2021-07-27T08:54:40.000Z</time>
      </trkpt>
      <trkpt lat="47.64627" lon="-2.92674">
        <ele>-8.61</ele>
        <time>2021-07-27T08:54:49.618Z</time>
      </trkpt>
      <trkpt lat="47.64621" lon="-2.92661">
        <ele>-5.75</ele>
        <time>2021-07-27T08:55:00.000Z</time>
      </trkpt>
      <trkpt lat="47.64613" lon="-2.92648">
        <ele>5.14</ele>
        <time>2021-07-27T08:55:10.000Z</time>
      </trkpt>
      <trkpt lat="47.64601" lon="-2.92638">
        <ele>9.73</ele>
        <time>2021-07-27T08:55:19.488Z</time>
      </trkpt>
      <trkpt lat="47.64591" lon="-2.92624">
        <ele>-5.93</ele>
        <time>2021-07-27T08:55:29.478Z</time>
      </trkpt>
      <trkpt lat="47.64586" lon="-2.92608">
        <ele>13.35</ele>
        <time>2021-07-27T08:55:38.653Z</time>
      </trkpt>
      <trkpt lat="47.64584" lon="-2.92596">
        <ele>-6.9</ele>
        <time>2021-07-27T08:55:47.903Z</time>
      </trkpt>
      <trkpt lat="47.64579" lon="-2.9258">
        <ele>1.23</ele>
        <time>2021-07-27T08:55:57.612Z</time>
      </trkpt>
      <trkpt lat="47.64574" lon="-2.92566">
        <ele>10.21</ele>
        <time>2021-07-27T08:56:06.645Z</time>
      </trkpt>
      <trkpt lat="47.64574" lon="-2.92552">
        <ele>-3.55</ele>
        <time>2021-07-27T08:56:16.000Z</time>
      </trkpt>
      <trkpt lat="47.64574" lon="-2.92532">
        <ele>12.38</ele>
        <time>2021-07-27T08:56:25.585Z</time>
      </trkpt>
      <trkpt lat="47.64574" lon="-2.92517">
        <ele>-1.33</ele>
        <time>2021-07-27T08:56:34.975Z</time>
      </trkpt>
      <trkpt lat="47.64573" lon="-2.92498">
        <ele>-6.32</ele>
        <time>2021-07-27T08:56:44.834Z</time>
      </trkpt>
      <trkpt lat="47.64575" lon="-2.92479">
        <ele>14.09</ele>
        <time>2021-07-27T08:56:54.764Z</time>
      </trkpt>
      <trkpt lat="47.64577" lon="-2.92464">
        <ele>7.24</ele>
        <time>2021-07-27T08:57:04.000Z</time>
      </trkpt>
      <trkpt lat="47.64578" lon="-2.92452">
        <ele>-7.46</ele>
        <time>2021-07-27T08:57:14.000Z</time>
      </trkpt>
      <trkpt lat="47.6458" lon="-2.9243">
        <ele>0.21</ele>
        <time>2021-07-27T08:57:23.785Z</time>
      </trkpt>
      <trkpt lat="47.64589" lon="-2.92422">
        <ele>-9.65</ele>
        <time>2021-07-27T08:57:33.875Z</time>
      </trkpt>
      <trkpt lat="47.64594" lon="-2.92413">
        <ele>12.6</ele>
        <time>2021-07-27T08:57:43.455Z</time>
      </trkpt>
      <trkpt lat="47.64604" lon="-2.92403">
        <ele>-1.61</ele>
        <time>2021-07-27T08:57:53.005Z</time>
      </trkpt>
      <trkpt lat="47.64611" lon="-2.92388">
        <ele>-12.91</ele>
        <time>2021-07-27T08:58:02.365Z</time>
      </trkpt>
      <trkpt lat="47.64617" lon="-2.92376">
        <ele>4.81</ele>
        <time>2021-07-27T08:58:11.664Z</time>
      </trkpt>
      <trkpt lat="47.64622" lon="-2.92363">
        <ele>-1.42</ele>
        <time>2021-07-27T08:58:22.000Z</time>
      </trkpt>
      <trkpt lat="47.64628" lon="-2.92346">
        <ele>7.82</ele>
        <time>2021-07-27T08:58:31.944Z</time>
      </trkpt>
      <trkpt lat="47.64633" lon="-2.92331">
        <ele>15.65</ele>
        <time>2021-07-27T08:58:41.443Z</time>
      </trkpt>
      <trkpt lat="47.64633" lon="-2.92315">
        <ele>18.27</ele>
        <time>2021-07-27T08:58:52.000Z</time>
      </trkpt>
      <trkpt lat="47.64633" lon="-2.92298">
        <ele>-1.09</ele>
        <time>2021-07-27T08:59:01.045Z</time>
      </trkpt>
      <trkpt lat="47.64634" lon="-2.92282">
        <ele>16.34</ele>
        <time>2021-07-27T08:59:10.714Z</time>
      </trkpt>
      <trkpt lat="47.6463" lon="-2.92269">
        <ele>10.62</ele>
        <time>2021-07-27T08:59:20.644Z</time>
      </trkpt>
      <trkpt lat="47.64623" lon="-2.92276">
        <ele>-2.17</ele>
        <time>2021-07-27T08:59:29.924Z</time>
      </trkpt>
      <trkpt lat="47.64616" lon="-2.92284">
        <ele>9.17</ele>
        <time>2021-07-27T08:59:39.000Z</time>
      </trkpt>
      <trkpt lat="47.64606" lon="-2.92294">
        <ele>-1.13</ele>
        <time>2021-07-27T08:59:49.000Z</time>
      </trkpt>
      <trkpt lat="47.64597" lon="-2.92305">
        <ele>12.46</ele>
        <time>2021-07-27T08:59:58.874Z</time>
      </trkpt>
      <trkpt lat="47.64586" lon="-2.92313">
        <ele>6.84</ele>
        <time>2021-07-27T09:00:08.000Z</time>
      </trkpt>
      <trkpt lat="47.64575" lon="-2.92323">
        <ele>4.54</ele>
        <time>2021-07-27T09:00:18.000Z</time>
      </trkpt>
      <trkpt lat="47.64562" lon="-2.92327">
        <ele>3.82</ele>
        <time>2021-07-27T09:00:27.625Z</time>
      </trkpt>
      <trkpt lat="47.64549" lon="-2.92326">
        <ele>-3.17</ele>
        <time>2021-07-27T09:00:38.035Z</time>
      </trkpt>
      <trkpt lat="47.64535" lon="-2.92327">
        <ele>5.05</ele>
        <time>2021-07-27T09:00:47.744Z</time>
      </trkpt>
      <trkpt lat="47.64524" lon="-2.92327">
        <ele>4.72</ele>
        <time>2021-07-27T09:00:57.144Z</time>
      </trkpt>
      <trkpt lat="47.64522" lon="-2.92339">
        <ele>1.47</ele>
        <time>2021-07-27T09:01:08.000Z</time>
      </trkpt>
      <trkpt lat="47.64523" lon="-2.9236">
        <ele>-5.32</ele>
        <time>2021-07-27T09:01:17.604Z</time>
      </trkpt>
      <trkpt lat="47.64525" lon="-2.92378">
        <ele>2.96</ele>
        <time>2021-07-27T09:01:28.000Z</time>
      </trkpt>
      <trkpt lat="47.64528" lon="-2.92396">
        <ele>-1.67</ele>
        <time>2021-07-27T09:01:37.324Z</time>
      </trkpt>
      <trkpt lat="47.64528" lon="-2.92413">
        <ele>12.66</ele>
        <time>2021-07-27T09:01:46.867Z</time>
      </trkpt>
      <trkpt lat="47.64527" lon="-2.9243">
        <ele>-3.66</ele>
        <time>2021-07-27T09:01:56.465Z</time>
      </trkpt>
      <trkpt lat="47.64526" lon="-2.92443">
        <ele>-10.07</ele>
        <time>2021-07-27T09:02:05.625Z</time>
      </trkpt>
      <trkpt lat="47.64524" lon="-2.92459">
        <ele>-2.76</ele>
        <time>2021-07-27T09:02:15.644Z</time>
      </trkpt>
      <trkpt lat="47.64523" lon="-2.92473">
        <ele>-14.65</ele>
        <time>2021-07-27T09:02:25.000Z</time>
      </trkpt>
      <trkpt lat="47.64516" lon="-2.9249">
        <ele>5.03</ele>
        <time>2021-07-27T09:02:34.635Z</time>
      </trkpt>
      <trkpt lat="47.64507" lon="-2.92501">
        <ele>7.15</ele>
        <time>2021-07-27T09:02:43.905Z</time>
      </trkpt>
      <trkpt lat="47.64498" lon="-2.92507">
        <ele>-1.18</ele>
        <time>2021-07-27T09:02:53.724Z</time>
      </trkpt>
      <trkpt lat="47.64486" lon="-2.92516">
        <ele>1.69</ele>
        <time>2021-07-27T09:03:03.825Z</time>
      </trkpt>
      <trkpt lat="47.64476" lon="-2.92524">
        <ele>9.13</ele>
        <time>2021-07-27T09:03:12.965Z</time>
      </trkpt>
      <trkpt lat="47.64473" lon="-2.92535">
        <ele>-4.51</ele>
        <time>2021-07-27T09:03:22.027Z</time>
      </trkpt>
      <trkpt lat="47.64469" lon="-2.92546">
        <ele>14.67</ele>
        <time>2021-07-27T09:03:31.965Z</time>
      </trkpt>
      <trkpt lat="47.64467" lon="-2.92553">
        <ele>4.96</ele>
        <time>2021-07-27T09:03:41.000Z</time>
      </trkpt>
      <trkpt lat="47.64464" lon="-2.92566">
        <ele>12.73</ele>
        <time>2021-07-27T09:03:50.465Z</time>
      </trkpt>
      <trkpt lat="47.64455" lon="-2.92569">
        <ele>12.59</ele>
        <time>2021-07-27T09:03:59.525Z</time>
      </trkpt>
      <trkpt lat="47.64449" lon="-2.9256">
        <ele>1.23</ele>
        <time>2021-07-27T09:04:08.925Z</time>
      </trkpt>
      <trkpt lat="47.64447" lon="-2.92546">
        <ele>-1.13</ele>
        <time>2021-07-27T09:04:19.000Z</time>
      </trkpt>
      <trkpt lat="47.64446" lon="-2.92543">
        <ele>4.42</ele>
        <time>2021-07-27T09:04:30.000Z</time>
      </trkpt>
      <trkpt lat="47.64442" lon="-2.92546">
        <ele>-0.23</ele>
        <time>2021-07-27T09:04:40.000Z</time>
      </trkpt>
      <trkpt lat="47.6444" lon="-2.92546">
        <ele>18.13</ele>
        <time>2021-07-27T09:04:51.000Z</time>
      </trkpt>
      <trkpt lat="47.64438" lon="-2.92549">
        <ele>18.46</ele>
        <time>2021-07-27T09:05:01.000Z</time>
      </trkpt>
      <trkpt lat="47.64438" lon="-2.9255">
        <ele>-2.25</ele>
        <time>2021-07-27T09:05:18.000Z</time>
      </trkpt>
      <trkpt lat="47.64438" lon="-2.92548">
        <ele>1.86</ele>
        <time>2021-07-27T09:05:31.000Z</time>
      </trkpt>
      <trkpt lat="47.6444" lon="-2.92544">
        <ele>10.97</ele>
        <time>2021-07-27T09:05:42.000Z</time>
      </trkpt>
      <trkpt lat="47.64441" lon="-2.92544">
        <ele>13.05</ele>
        <time>2021-07-27T09:05:52.000Z</time>
      </trkpt>
      <trkpt lat="47.6444" lon="-2.92543">
        <ele>1.79</ele>
        <time>2021-07-27T09:06:56.000Z</time>
      </trkpt>
      <trkpt lat="47.64441" lon="-2.92544">
        <ele>12.75</ele>
        <time>2021-07-27T09:07:10.000Z</time>
      </trkpt>
      <trkpt lat="47.64443" lon="-2.92546">
        <ele>-2.28</ele>
        <time>2021-07-27T09:07:19.631Z</time>
      </trkpt>
      <trkpt lat="47.64444" lon="-2.92545">
        <ele>15.26</ele>
        <time>2021-07-27T09:07:36.000Z</time>
      </trkpt>
      <trkpt lat="47.64444" lon="-2.92543">
        <ele>13</ele>
        <time>2021-07-27T09:07:46.000Z</time>
      </trkpt>
      <trkpt lat="47.64446" lon="-2.92533">
        <ele>18.74</ele>
        <time>2021-07-27T09:07:55.646Z</time>
      </trkpt>
      <trkpt lat="47.64456" lon="-2.92525">
        <ele>7.79</ele>
        <time>2021-07-27T09:08:05.787Z</time>
      </trkpt>
      <trkpt lat="47.64462" lon="-2.92521">
        <ele>3.23</ele>
        <time>2021-07-27T09:08:14.909Z</time>
      </trkpt>
      <trkpt lat="47.64468" lon="-2.92532">
        <ele>12.4</ele>
        <time>2021-07-27T09:08:24.000Z</time>
      </trkpt>
      <trkpt lat="47.6447" lon="-2.92552">
        <ele>5.47</ele>
        <time>2021-07-27T09:08:33.746Z</time>
      </trkpt>
      <trkpt lat="47.64472" lon="-2.92565">
        <ele>8.88</ele>
        <time>2021-07-27T09:08:43.000Z</time>
      </trkpt>
      <trkpt lat="47.64473" lon="-2.92586">
        <ele>0.82</ele>
        <time>2021-07-27T09:08:52.888Z</time>
      </trkpt>
      <trkpt lat="47.6447" lon="-2.92598">
        <ele>12.65</ele>
        <time>2021-07-27T09:09:02.427Z</time>
      </trkpt>
      <trkpt lat="47.64464" lon="-2.92608">
        <ele>8.88</ele>
        <time>2021-07-27T09:09:11.846Z</time>
      </trkpt>
      <trkpt lat="47.64461" lon="-2.92615">
        <ele>11.77</ele>
        <time>2021-07-27T09:09:21.488Z</time>
      </trkpt>
      <trkpt lat="47.64455" lon="-2.92618">
        <ele>24.69</ele>
        <time>2021-07-27T09:09:31.000Z</time>
      </trkpt>
      <trkpt lat="47.64453" lon="-2.92622">
        <ele>-2.11</ele>
        <time>2021-07-27T09:09:40.527Z</time>
      </trkpt>
      <trkpt lat="47.64448" lon="-2.92629">
        <ele>31.35</ele>
        <time>2021-07-27T09:09:50.566Z</time>
      </trkpt>
      <trkpt lat="47.64445" lon="-2.92637">
        <ele>5.35</ele>
        <time>2021-07-27T09:09:59.638Z</time>
      </trkpt>
      <trkpt lat="47.64439" lon="-2.9264">
        <ele>-2.73</ele>
        <time>2021-07-27T09:10:08.846Z</time>
      </trkpt>
      <trkpt lat="47.64437" lon="-2.92649">
        <ele>7.71</ele>
        <time>2021-07-27T09:10:19.000Z</time>
      </trkpt>
      <trkpt lat="47.64433" lon="-2.9266">
        <ele>5.81</ele>
        <time>2021-07-27T09:10:28.587Z</time>
      </trkpt>
      <trkpt lat="47.64428" lon="-2.92668">
        <ele>9.36</ele>
        <time>2021-07-27T09:10:37.666Z</time>
      </trkpt>
      <trkpt lat="47.6442" lon="-2.92678">
        <ele>11.94</ele>
        <time>2021-07-27T09:10:46.769Z</time>
      </trkpt>
      <trkpt lat="47.64411" lon="-2.92686">
        <ele>14.78</ele>
        <time>2021-07-27T09:10:56.487Z</time>
      </trkpt>
      <trkpt lat="47.64404" lon="-2.92696">
        <ele>11.12</ele>
        <time>2021-07-27T09:11:06.000Z</time>
      </trkpt>
      <trkpt lat="47.64397" lon="-2.92705">
        <ele>4.89</ele>
        <time>2021-07-27T09:11:15.467Z</time>
      </trkpt>
      <trkpt lat="47.64388" lon="-2.92714">
        <ele>-0.02</ele>
        <time>2021-07-27T09:11:24.846Z</time>
      </trkpt>
      <trkpt lat="47.64378" lon="-2.92725">
        <ele>22.13</ele>
        <time>2021-07-27T09:11:34.367Z</time>
      </trkpt>
      <trkpt lat="47.64371" lon="-2.92736">
        <ele>0.82</ele>
        <time>2021-07-27T09:11:44.106Z</time>
      </trkpt>
      <trkpt lat="47.64369" lon="-2.92744">
        <ele>0.73</ele>
        <time>2021-07-27T09:11:54.000Z</time>
      </trkpt>
      <trkpt lat="47.64369" lon="-2.92769">
        <ele>14.11</ele>
        <time>2021-07-27T09:12:03.787Z</time>
      </trkpt>
      <trkpt lat="47.64367" lon="-2.9278">
        <ele>20.26</ele>
        <time>2021-07-27T09:12:13.817Z</time>
      </trkpt>
      <trkpt lat="47.64366" lon="-2.92791">
        <ele>18.34</ele>
        <time>2021-07-27T09:12:24.000Z</time>
      </trkpt>
      <trkpt lat="47.64363" lon="-2.92809">
        <ele>1.06</ele>
        <time>2021-07-27T09:12:33.418Z</time>
      </trkpt>
      <trkpt lat="47.64359" lon="-2.92828">
        <ele>10.79</ele>
        <time>2021-07-27T09:12:42.627Z</time>
      </trkpt>
      <trkpt lat="47.64352" lon="-2.92845">
        <ele>23.17</ele>
        <time>2021-07-27T09:12:51.766Z</time>
      </trkpt>
      <trkpt lat="47.64345" lon="-2.92853">
        <ele>9.39</ele>
        <time>2021-07-27T09:13:01.000Z</time>
      </trkpt>
      <trkpt lat="47.64334" lon="-2.92868">
        <ele>2.43</ele>
        <time>2021-07-27T09:13:11.000Z</time>
      </trkpt>
      <trkpt lat="47.64322" lon="-2.92886">
        <ele>30.2</ele>
        <time>2021-07-27T09:13:20.366Z</time>
      </trkpt>
      <trkpt lat="47.64312" lon="-2.92894">
        <ele>14.07</ele>
        <time>2021-07-27T09:13:30.000Z</time>
      </trkpt>
      <trkpt lat="47.64303" lon="-2.92904">
        <ele>29.85</ele>
        <time>2021-07-27T09:13:39.367Z</time>
      </trkpt>
      <trkpt lat="47.64292" lon="-2.92912">
        <ele>6.81</ele>
        <time>2021-07-27T09:13:49.306Z</time>
      </trkpt>
      <trkpt lat="47.64284" lon="-2.92924">
        <ele>11.1</ele>
        <time>2021-07-27T09:13:58.767Z</time>
      </trkpt>
      <trkpt lat="47.64275" lon="-2.92936">
        <ele>23.44</ele>
        <time>2021-07-27T09:14:07.828Z</time>
      </trkpt>
      <trkpt lat="47.64267" lon="-2.92945">
        <ele>18.92</ele>
        <time>2021-07-27T09:14:19.000Z</time>
      </trkpt>
      <trkpt lat="47.64257" lon="-2.92955">
        <ele>23.65</ele>
        <time>2021-07-27T09:14:28.807Z</time>
      </trkpt>
      <trkpt lat="47.64249" lon="-2.92962">
        <ele>12.41</ele>
        <time>2021-07-27T09:14:38.000Z</time>
      </trkpt>
      <trkpt lat="47.64237" lon="-2.92972">
        <ele>20.9</ele>
        <time>2021-07-27T09:14:47.707Z</time>
      </trkpt>
      <trkpt lat="47.64229" lon="-2.92976">
        <ele>13.39</ele>
        <time>2021-07-27T09:14:56.726Z</time>
      </trkpt>
      <trkpt lat="47.64221" lon="-2.92981">
        <ele>4.24</ele>
        <time>2021-07-27T09:15:05.827Z</time>
      </trkpt>
      <trkpt lat="47.64212" lon="-2.92984">
        <ele>19</ele>
        <time>2021-07-27T09:15:14.846Z</time>
      </trkpt>
      <trkpt lat="47.64202" lon="-2.92992">
        <ele>24.78</ele>
        <time>2021-07-27T09:15:24.727Z</time>
      </trkpt>
      <trkpt lat="47.64193" lon="-2.92995">
        <ele>12.77</ele>
        <time>2021-07-27T09:15:34.567Z</time>
      </trkpt>
      <trkpt lat="47.64183" lon="-2.93002">
        <ele>12.28</ele>
        <time>2021-07-27T09:15:43.817Z</time>
      </trkpt>
      <trkpt lat="47.64171" lon="-2.93001">
        <ele>32.46</ele>
        <time>2021-07-27T09:15:54.000Z</time>
      </trkpt>
      <trkpt lat="47.64159" lon="-2.93009">
        <ele>8.38</ele>
        <time>2021-07-27T09:16:03.707Z</time>
      </trkpt>
      <trkpt lat="47.64151" lon="-2.93022">
        <ele>-2.2</ele>
        <time>2021-07-27T09:16:13.307Z</time>
      </trkpt>
      <trkpt lat="47.64146" lon="-2.93038">
        <ele>9.45</ele>
        <time>2021-07-27T09:16:24.000Z</time>
      </trkpt>
      <trkpt lat="47.64142" lon="-2.93049">
        <ele>5.59</ele>
        <time>2021-07-27T09:16:33.586Z</time>
      </trkpt>
      <trkpt lat="47.64141" lon="-2.93062">
        <ele>12.89</ele>
        <time>2021-07-27T09:16:43.106Z</time>
      </trkpt>
      <trkpt lat="47.6414" lon="-2.93082">
        <ele>16.57</ele>
        <time>2021-07-27T09:16:54.000Z</time>
      </trkpt>
      <trkpt lat="47.64139" lon="-2.93098">
        <ele>10.2</ele>
        <time>2021-07-27T09:17:04.000Z</time>
      </trkpt>
      <trkpt lat="47.64138" lon="-2.93098">
        <ele>23.68</ele>
        <time>2021-07-27T09:17:14.000Z</time>
      </trkpt>
      <trkpt lat="47.64138" lon="-2.93099">
        <ele>17.75</ele>
        <time>2021-07-27T09:17:28.000Z</time>
      </trkpt>
      <trkpt lat="47.64138" lon="-2.931">
        <ele>16.78</ele>
        <time>2021-07-27T09:17:38.266Z</time>
      </trkpt>
      <trkpt lat="47.64134" lon="-2.93117">
        <ele>2.66</ele>
        <time>2021-07-27T09:17:47.626Z</time>
      </trkpt>
      <trkpt lat="47.64129" lon="-2.93133">
        <ele>14.65</ele>
        <time>2021-07-27T09:17:56.726Z</time>
      </trkpt>
      <trkpt lat="47.64125" lon="-2.93147">
        <ele>14.67</ele>
        <time>2021-07-27T09:18:05.747Z</time>
      </trkpt>
      <trkpt lat="47.6412" lon="-2.93158">
        <ele>14.78</ele>
        <time>2021-07-27T09:18:15.747Z</time>
      </trkpt>
      <trkpt lat="47.6412" lon="-2.9317">
        <ele>14.7</ele>
        <time>2021-07-27T09:18:26.000Z</time>
      </trkpt>
      <trkpt lat="47.64122" lon="-2.9318">
        <ele>14.65</ele>
        <time>2021-07-27T09:18:36.000Z</time>
      </trkpt>
      <trkpt lat="47.64121" lon="-2.93179">
        <ele>14.62</ele>
        <time>2021-07-27T09:18:48.000Z</time>
      </trkpt>
      <trkpt lat="47.64122" lon="-2.93181">
        <ele>14.69</ele>
        <time>2021-07-27T09:18:58.000Z</time>
      </trkpt>
      <trkpt lat="47.64121" lon="-2.93179">
        <ele>14.76</ele>
        <time>2021-07-27T09:19:08.000Z</time>
      </trkpt>
      <trkpt lat="47.6412" lon="-2.93182">
        <ele>14.62</ele>
        <time>2021-07-27T09:19:17.427Z</time>
      </trkpt>
      <trkpt lat="47.64122" lon="-2.93196">
        <ele>6.35</ele>
        <time>2021-07-27T09:19:26.787Z</time>
      </trkpt>
      <trkpt lat="47.64125" lon="-2.9321">
        <ele>21.75</ele>
        <time>2021-07-27T09:19:36.000Z</time>
      </trkpt>
      <trkpt lat="47.64125" lon="-2.93227">
        <ele>20.33</ele>
        <time>2021-07-27T09:19:45.867Z</time>
      </trkpt>
      <trkpt lat="47.64126" lon="-2.93242">
        <ele>36.29</ele>
        <time>2021-07-27T09:19:56.000Z</time>
      </trkpt>
      <trkpt lat="47.64129" lon="-2.9326">
        <ele>22.1</ele>
        <time>2021-07-27T09:20:05.186Z</time>
      </trkpt>
      <trkpt lat="47.64131" lon="-2.93266">
        <ele>38.4</ele>
        <time>2021-07-27T09:20:15.000Z</time>
      </trkpt>
      <trkpt lat="47.64129" lon="-2.93272">
        <ele>11.81</ele>
        <time>2021-07-27T09:20:24.766Z</time>
      </trkpt>
      <trkpt lat="47.64121" lon="-2.9329">
        <ele>11.93</ele>
        <time>2021-07-27T09:20:34.426Z</time>
      </trkpt>
      <trkpt lat="47.64113" lon="-2.93303">
        <ele>19.16</ele>
        <time>2021-07-27T09:20:43.646Z</time>
      </trkpt>
      <trkpt lat="47.64104" lon="-2.93314">
        <ele>24.07</ele>
        <time>2021-07-27T09:20:52.884Z</time>
      </trkpt>
      <trkpt lat="47.64095" lon="-2.93325">
        <ele>8.27</ele>
        <time>2021-07-27T09:21:03.000Z</time>
      </trkpt>
      <trkpt lat="47.64084" lon="-2.9334">
        <ele>8.85</ele>
        <time>2021-07-27T09:21:12.847Z</time>
      </trkpt>
      <trkpt lat="47.64075" lon="-2.93348">
        <ele>7.31</ele>
        <time>2021-07-27T09:21:22.647Z</time>
      </trkpt>
      <trkpt lat="47.64068" lon="-2.93353">
        <ele>7.54</ele>
        <time>2021-07-27T09:21:32.000Z</time>
      </trkpt>
      <trkpt lat="47.64059" lon="-2.93363">
        <ele>7.57</ele>
        <time>2021-07-27T09:21:41.327Z</time>
      </trkpt>
      <trkpt lat="47.64047" lon="-2.93375">
        <ele>7.65</ele>
        <time>2021-07-27T09:21:52.000Z</time>
      </trkpt>
      <trkpt lat="47.64041" lon="-2.93392">
        <ele>7.5</ele>
        <time>2021-07-27T09:22:01.227Z</time>
      </trkpt>
      <trkpt lat="47.64034" lon="-2.93406">
        <ele>7.56</ele>
        <time>2021-07-27T09:22:10.547Z</time>
      </trkpt>
      <trkpt lat="47.64025" lon="-2.93421">
        <ele>7.64</ele>
        <time>2021-07-27T09:22:20.487Z</time>
      </trkpt>
      <trkpt lat="47.64016" lon="-2.93435">
        <ele>7.77</ele>
        <time>2021-07-27T09:22:30.386Z</time>
      </trkpt>
      <trkpt lat="47.64007" lon="-2.93446">
        <ele>7.83</ele>
        <time>2021-07-27T09:22:40.000Z</time>
      </trkpt>
      <trkpt lat="47.63996" lon="-2.93456">
        <ele>7.78</ele>
        <time>2021-07-27T09:22:49.407Z</time>
      </trkpt>
      <trkpt lat="47.63988" lon="-2.93468">
        <ele>7.87</ele>
        <time>2021-07-27T09:22:58.426Z</time>
      </trkpt>
      <trkpt lat="47.63979" lon="-2.93479">
        <ele>7.84</ele>
        <time>2021-07-27T09:23:07.526Z</time>
      </trkpt>
      <trkpt lat="47.63968" lon="-2.93487">
        <ele>7.7</ele>
        <time>2021-07-27T09:23:17.488Z</time>
      </trkpt>
      <trkpt lat="47.63962" lon="-2.93499">
        <ele>7.73</ele>
        <time>2021-07-27T09:23:26.796Z</time>
      </trkpt>
      <trkpt lat="47.63962" lon="-2.93516">
        <ele>7.67</ele>
        <time>2021-07-27T09:23:35.930Z</time>
      </trkpt>
      <trkpt lat="47.63961" lon="-2.93532">
        <ele>7.78</ele>
        <time>2021-07-27T09:23:46.000Z</time>
      </trkpt>
      <trkpt lat="47.63959" lon="-2.93552">
        <ele>7.79</ele>
        <time>2021-07-27T09:23:55.016Z</time>
      </trkpt>
      <trkpt lat="47.63956" lon="-2.93567">
        <ele>7.82</ele>
        <time>2021-07-27T09:24:04.217Z</time>
      </trkpt>
      <trkpt lat="47.63955" lon="-2.93577">
        <ele>7.86</ele>
        <time>2021-07-27T09:24:14.000Z</time>
      </trkpt>
      <trkpt lat="47.63955" lon="-2.9358">
        <ele>7.84</ele>
        <time>2021-07-27T09:24:23.757Z</time>
      </trkpt>
      <trkpt lat="47.63956" lon="-2.93598">
        <ele>8.01</ele>
        <time>2021-07-27T09:24:33.479Z</time>
      </trkpt>
      <trkpt lat="47.63955" lon="-2.93617">
        <ele>7.8</ele>
        <time>2021-07-27T09:24:42.617Z</time>
      </trkpt>
      <trkpt lat="47.63951" lon="-2.93633">
        <ele>7.72</ele>
        <time>2021-07-27T09:24:51.717Z</time>
      </trkpt>
      <trkpt lat="47.63946" lon="-2.93647">
        <ele>7.62</ele>
        <time>2021-07-27T09:25:00.856Z</time>
      </trkpt>
      <trkpt lat="47.63941" lon="-2.93664">
        <ele>13.67</ele>
        <time>2021-07-27T09:25:10.536Z</time>
      </trkpt>
      <trkpt lat="47.63938" lon="-2.93679">
        <ele>24.91</ele>
        <time>2021-07-27T09:25:21.000Z</time>
      </trkpt>
      <trkpt lat="47.63936" lon="-2.93696">
        <ele>32.87</ele>
        <time>2021-07-27T09:25:30.125Z</time>
      </trkpt>
      <trkpt lat="47.6393" lon="-2.93712">
        <ele>17.5</ele>
        <time>2021-07-27T09:25:40.000Z</time>
      </trkpt>
      <trkpt lat="47.6392" lon="-2.93725">
        <ele>16.61</ele>
        <time>2021-07-27T09:25:49.617Z</time>
      </trkpt>
      <trkpt lat="47.63914" lon="-2.93736">
        <ele>16.73</ele>
        <time>2021-07-27T09:25:58.858Z</time>
      </trkpt>
      <trkpt lat="47.63908" lon="-2.93745">
        <ele>11.66</ele>
        <time>2021-07-27T09:26:08.236Z</time>
      </trkpt>
      <trkpt lat="47.639" lon="-2.93756">
        <ele>18.05</ele>
        <time>2021-07-27T09:26:18.000Z</time>
      </trkpt>
      <trkpt lat="47.63893" lon="-2.93771">
        <ele>14.61</ele>
        <time>2021-07-27T09:26:27.607Z</time>
      </trkpt>
      <trkpt lat="47.63889" lon="-2.93786">
        <ele>13.04</ele>
        <time>2021-07-27T09:26:36.798Z</time>
      </trkpt>
      <trkpt lat="47.63884" lon="-2.93803">
        <ele>20.65</ele>
        <time>2021-07-27T09:26:46.013Z</time>
      </trkpt>
      <trkpt lat="47.63879" lon="-2.9382">
        <ele>0.39</ele>
        <time>2021-07-27T09:26:56.000Z</time>
      </trkpt>
      <trkpt lat="47.63876" lon="-2.93838">
        <ele>16.62</ele>
        <time>2021-07-27T09:27:06.007Z</time>
      </trkpt>
      <trkpt lat="47.63874" lon="-2.9385">
        <ele>5.75</ele>
        <time>2021-07-27T09:27:15.047Z</time>
      </trkpt>
      <trkpt lat="47.6387" lon="-2.93864">
        <ele>13.24</ele>
        <time>2021-07-27T09:27:24.518Z</time>
      </trkpt>
      <trkpt lat="47.63867" lon="-2.93878">
        <ele>17.81</ele>
        <time>2021-07-27T09:27:33.799Z</time>
      </trkpt>
      <trkpt lat="47.63869" lon="-2.93895">
        <ele>28.58</ele>
        <time>2021-07-27T09:27:43.002Z</time>
      </trkpt>
      <trkpt lat="47.63864" lon="-2.93909">
        <ele>26.73</ele>
        <time>2021-07-27T09:27:52.413Z</time>
      </trkpt>
      <trkpt lat="47.63856" lon="-2.93925">
        <ele>12.99</ele>
        <time>2021-07-27T09:28:02.000Z</time>
      </trkpt>
      <trkpt lat="47.63849" lon="-2.93939">
        <ele>17.77</ele>
        <time>2021-07-27T09:28:12.000Z</time>
      </trkpt>
      <trkpt lat="47.63841" lon="-2.93956">
        <ele>7.14</ele>
        <time>2021-07-27T09:28:21.389Z</time>
      </trkpt>
      <trkpt lat="47.63836" lon="-2.93971">
        <ele>12.41</ele>
        <time>2021-07-27T09:28:30.728Z</time>
      </trkpt>
      <trkpt lat="47.63833" lon="-2.93984">
        <ele>15.86</ele>
        <time>2021-07-27T09:28:40.000Z</time>
      </trkpt>
      <trkpt lat="47.63825" lon="-2.93992">
        <ele>-0.85</ele>
        <time>2021-07-27T09:28:49.407Z</time>
      </trkpt>
      <trkpt lat="47.63816" lon="-2.93996">
        <ele>25.69</ele>
        <time>2021-07-27T09:28:58.828Z</time>
      </trkpt>
      <trkpt lat="47.63806" lon="-2.94003">
        <ele>26.05</ele>
        <time>2021-07-27T09:29:08.768Z</time>
      </trkpt>
      <trkpt lat="47.63801" lon="-2.94007">
        <ele>25.81</ele>
        <time>2021-07-27T09:29:18.000Z</time>
      </trkpt>
      <trkpt lat="47.6379" lon="-2.94018">
        <ele>25.99</ele>
        <time>2021-07-27T09:29:27.768Z</time>
      </trkpt>
      <trkpt lat="47.63778" lon="-2.94023">
        <ele>25.98</ele>
        <time>2021-07-27T09:29:36.828Z</time>
      </trkpt>
      <trkpt lat="47.63769" lon="-2.94026">
        <ele>26.05</ele>
        <time>2021-07-27T09:29:45.848Z</time>
      </trkpt>
      <trkpt lat="47.63758" lon="-2.94027">
        <ele>25.63</ele>
        <time>2021-07-27T09:29:55.348Z</time>
      </trkpt>
      <trkpt lat="47.63748" lon="-2.94034">
        <ele>25.59</ele>
        <time>2021-07-27T09:30:04.847Z</time>
      </trkpt>
      <trkpt lat="47.63736" lon="-2.94043">
        <ele>25.98</ele>
        <time>2021-07-27T09:30:14.748Z</time>
      </trkpt>
      <trkpt lat="47.63724" lon="-2.94053">
        <ele>25.99</ele>
        <time>2021-07-27T09:30:24.615Z</time>
      </trkpt>
      <trkpt lat="47.63715" lon="-2.94059">
        <ele>26.12</ele>
        <time>2021-07-27T09:30:33.927Z</time>
      </trkpt>
      <trkpt lat="47.63707" lon="-2.94064">
        <ele>26.16</ele>
        <time>2021-07-27T09:30:43.000Z</time>
      </trkpt>
      <trkpt lat="47.63699" lon="-2.94072">
        <ele>26.05</ele>
        <time>2021-07-27T09:30:52.547Z</time>
      </trkpt>
      <trkpt lat="47.63692" lon="-2.94085">
        <ele>26.07</ele>
        <time>2021-07-27T09:31:02.000Z</time>
      </trkpt>
      <trkpt lat="47.63679" lon="-2.94098">
        <ele>26.2</ele>
        <time>2021-07-27T09:31:11.388Z</time>
      </trkpt>
      <trkpt lat="47.63668" lon="-2.94104">
        <ele>25.86</ele>
        <time>2021-07-27T09:31:20.910Z</time>
      </trkpt>
      <trkpt lat="47.63657" lon="-2.94115">
        <ele>25.53</ele>
        <time>2021-07-27T09:31:29.921Z</time>
      </trkpt>
      <trkpt lat="47.63648" lon="-2.94129">
        <ele>25.82</ele>
        <time>2021-07-27T09:31:39.318Z</time>
      </trkpt>
      <trkpt lat="47.63643" lon="-2.94137">
        <ele>26.03</ele>
        <time>2021-07-27T09:31:49.000Z</time>
      </trkpt>
      <trkpt lat="47.63635" lon="-2.94153">
        <ele>27.06</ele>
        <time>2021-07-27T09:31:58.279Z</time>
      </trkpt>
      <trkpt lat="47.63629" lon="-2.94167">
        <ele>27.35</ele>
        <time>2021-07-27T09:32:08.029Z</time>
      </trkpt>
      <trkpt lat="47.63622" lon="-2.94182">
        <ele>27.18</ele>
        <time>2021-07-27T09:32:17.327Z</time>
      </trkpt>
      <trkpt lat="47.63616" lon="-2.94197">
        <ele>27.17</ele>
        <time>2021-07-27T09:32:26.527Z</time>
      </trkpt>
      <trkpt lat="47.63609" lon="-2.94212">
        <ele>27.24</ele>
        <time>2021-07-27T09:32:36.527Z</time>
      </trkpt>
      <trkpt lat="47.63599" lon="-2.94218">
        <ele>27.35</ele>
        <time>2021-07-27T09:32:45.936Z</time>
      </trkpt>
      <trkpt lat="47.63588" lon="-2.94222">
        <ele>27.21</ele>
        <time>2021-07-27T09:32:55.738Z</time>
      </trkpt>
      <trkpt lat="47.63578" lon="-2.94231">
        <ele>26.87</ele>
        <time>2021-07-27T09:33:05.607Z</time>
      </trkpt>
      <trkpt lat="47.63569" lon="-2.94241">
        <ele>26.99</ele>
        <time>2021-07-27T09:33:15.000Z</time>
      </trkpt>
      <trkpt lat="47.63559" lon="-2.94247">
        <ele>27.39</ele>
        <time>2021-07-27T09:33:24.556Z</time>
      </trkpt>
      <trkpt lat="47.63549" lon="-2.94254">
        <ele>27.7</ele>
        <time>2021-07-27T09:33:33.578Z</time>
      </trkpt>
      <trkpt lat="47.63541" lon="-2.94244">
        <ele>27.72</ele>
        <time>2021-07-27T09:33:43.000Z</time>
      </trkpt>
      <trkpt lat="47.63535" lon="-2.94223">
        <ele>27.22</ele>
        <time>2021-07-27T09:33:52.148Z</time>
      </trkpt>
      <trkpt lat="47.6353" lon="-2.94207">
        <ele>27.04</ele>
        <time>2021-07-27T09:34:02.000Z</time>
      </trkpt>
      <trkpt lat="47.63523" lon="-2.94208">
        <ele>27</ele>
        <time>2021-07-27T09:34:11.548Z</time>
      </trkpt>
      <trkpt lat="47.63515" lon="-2.94196">
        <ele>26.79</ele>
        <time>2021-07-27T09:34:20.727Z</time>
      </trkpt>
      <trkpt lat="47.63508" lon="-2.94185">
        <ele>26.63</ele>
        <time>2021-07-27T09:34:30.588Z</time>
      </trkpt>
      <trkpt lat="47.635" lon="-2.94175">
        <ele>26.34</ele>
        <time>2021-07-27T09:34:41.000Z</time>
      </trkpt>
      <trkpt lat="47.63492" lon="-2.94169">
        <ele>26.66</ele>
        <time>2021-07-27T09:34:50.373Z</time>
      </trkpt>
      <trkpt lat="47.63488" lon="-2.94157">
        <ele>26.61</ele>
        <time>2021-07-27T09:35:00.000Z</time>
      </trkpt>
      <trkpt lat="47.63478" lon="-2.94147">
        <ele>26.52</ele>
        <time>2021-07-27T09:35:09.078Z</time>
      </trkpt>
      <trkpt lat="47.63467" lon="-2.94153">
        <ele>27.47</ele>
        <time>2021-07-27T09:35:18.697Z</time>
      </trkpt>
      <trkpt lat="47.6346" lon="-2.94168">
        <ele>28.02</ele>
        <time>2021-07-27T09:35:27.908Z</time>
      </trkpt>
      <trkpt lat="47.63451" lon="-2.9418">
        <ele>28.21</ele>
        <time>2021-07-27T09:35:37.497Z</time>
      </trkpt>
      <trkpt lat="47.63442" lon="-2.94191">
        <ele>28.39</ele>
        <time>2021-07-27T09:35:46.528Z</time>
      </trkpt>
      <trkpt lat="47.63434" lon="-2.94205">
        <ele>28.56</ele>
        <time>2021-07-27T09:35:55.818Z</time>
      </trkpt>
      <trkpt lat="47.63427" lon="-2.9422">
        <ele>28.54</ele>
        <time>2021-07-27T09:36:05.708Z</time>
      </trkpt>
      <trkpt lat="47.63422" lon="-2.94234">
        <ele>28.53</ele>
        <time>2021-07-27T09:36:16.000Z</time>
      </trkpt>
      <trkpt lat="47.63413" lon="-2.9425">
        <ele>28.13</ele>
        <time>2021-07-27T09:36:25.447Z</time>
      </trkpt>
      <trkpt lat="47.63406" lon="-2.94262">
        <ele>27.4</ele>
        <time>2021-07-27T09:36:35.000Z</time>
      </trkpt>
      <trkpt lat="47.63398" lon="-2.94278">
        <ele>27.22</ele>
        <time>2021-07-27T09:36:44.347Z</time>
      </trkpt>
      <trkpt lat="47.63392" lon="-2.94292">
        <ele>26.4</ele>
        <time>2021-07-27T09:36:53.578Z</time>
      </trkpt>
      <trkpt lat="47.63387" lon="-2.94309">
        <ele>25.99</ele>
        <time>2021-07-27T09:37:02.652Z</time>
      </trkpt>
      <trkpt lat="47.63381" lon="-2.94321">
        <ele>25.84</ele>
        <time>2021-07-27T09:37:11.908Z</time>
      </trkpt>
      <trkpt lat="47.63377" lon="-2.94337">
        <ele>26.44</ele>
        <time>2021-07-27T09:37:22.000Z</time>
      </trkpt>
      <trkpt lat="47.63374" lon="-2.94356">
        <ele>26.43</ele>
        <time>2021-07-27T09:37:31.187Z</time>
      </trkpt>
      <trkpt lat="47.6337" lon="-2.94373">
        <ele>26.41</ele>
        <time>2021-07-27T09:37:40.427Z</time>
      </trkpt>
      <trkpt lat="47.63367" lon="-2.94389">
        <ele>26.66</ele>
        <time>2021-07-27T09:37:49.428Z</time>
      </trkpt>
      <trkpt lat="47.63364" lon="-2.94407">
        <ele>26.93</ele>
        <time>2021-07-27T09:37:58.627Z</time>
      </trkpt>
      <trkpt lat="47.63361" lon="-2.94425">
        <ele>27.08</ele>
        <time>2021-07-27T09:38:07.708Z</time>
      </trkpt>
      <trkpt lat="47.63354" lon="-2.94438">
        <ele>27.23</ele>
        <time>2021-07-27T09:38:18.000Z</time>
      </trkpt>
      <trkpt lat="47.63346" lon="-2.94453">
        <ele>27.21</ele>
        <time>2021-07-27T09:38:27.628Z</time>
      </trkpt>
      <trkpt lat="47.63338" lon="-2.94467">
        <ele>26.7</ele>
        <time>2021-07-27T09:38:37.288Z</time>
      </trkpt>
      <trkpt lat="47.63331" lon="-2.94478">
        <ele>26.77</ele>
        <time>2021-07-27T09:38:46.408Z</time>
      </trkpt>
      <trkpt lat="47.63324" lon="-2.94491">
        <ele>26.61</ele>
        <time>2021-07-27T09:38:57.000Z</time>
      </trkpt>
      <trkpt lat="47.63314" lon="-2.94501">
        <ele>26.65</ele>
        <time>2021-07-27T09:39:06.448Z</time>
      </trkpt>
      <trkpt lat="47.63306" lon="-2.94516">
        <ele>26.93</ele>
        <time>2021-07-27T09:39:15.548Z</time>
      </trkpt>
      <trkpt lat="47.63299" lon="-2.94528">
        <ele>26.89</ele>
        <time>2021-07-27T09:39:24.578Z</time>
      </trkpt>
      <trkpt lat="47.63292" lon="-2.94541">
        <ele>26.83</ele>
        <time>2021-07-27T09:39:33.588Z</time>
      </trkpt>
      <trkpt lat="47.63284" lon="-2.94553">
        <ele>26.74</ele>
        <time>2021-07-27T09:39:42.607Z</time>
      </trkpt>
      <trkpt lat="47.63275" lon="-2.94564">
        <ele>25.25</ele>
        <time>2021-07-27T09:39:53.000Z</time>
      </trkpt>
      <trkpt lat="47.63264" lon="-2.94577">
        <ele>24.71</ele>
        <time>2021-07-27T09:40:02.728Z</time>
      </trkpt>
      <trkpt lat="47.63254" lon="-2.94587">
        <ele>23.66</ele>
        <time>2021-07-27T09:40:11.828Z</time>
      </trkpt>
      <trkpt lat="47.63245" lon="-2.94602">
        <ele>23.06</ele>
        <time>2021-07-27T09:40:20.870Z</time>
      </trkpt>
      <trkpt lat="47.63238" lon="-2.94615">
        <ele>22.9</ele>
        <time>2021-07-27T09:40:30.196Z</time>
      </trkpt>
      <trkpt lat="47.63231" lon="-2.94631">
        <ele>22.77</ele>
        <time>2021-07-27T09:40:39.768Z</time>
      </trkpt>
      <trkpt lat="47.63223" lon="-2.94644">
        <ele>22.75</ele>
        <time>2021-07-27T09:40:48.807Z</time>
      </trkpt>
      <trkpt lat="47.63211" lon="-2.94655">
        <ele>22.93</ele>
        <time>2021-07-27T09:40:58.767Z</time>
      </trkpt>
      <trkpt lat="47.63201" lon="-2.9466">
        <ele>22.76</ele>
        <time>2021-07-27T09:41:08.228Z</time>
      </trkpt>
      <trkpt lat="47.63189" lon="-2.94664">
        <ele>22.73</ele>
        <time>2021-07-27T09:41:17.668Z</time>
      </trkpt>
      <trkpt lat="47.63177" lon="-2.9467">
        <ele>22.84</ele>
        <time>2021-07-27T09:41:26.708Z</time>
      </trkpt>
      <trkpt lat="47.63166" lon="-2.94676">
        <ele>23</ele>
        <time>2021-07-27T09:41:36.087Z</time>
      </trkpt>
      <trkpt lat="47.63162" lon="-2.94681">
        <ele>22.97</ele>
        <time>2021-07-27T09:41:46.000Z</time>
      </trkpt>
      <trkpt lat="47.63162" lon="-2.94678">
        <ele>18.71</ele>
        <time>2021-07-27T09:41:56.000Z</time>
      </trkpt>
      <trkpt lat="47.63156" lon="-2.94683">
        <ele>15.87</ele>
        <time>2021-07-27T09:42:06.000Z</time>
      </trkpt>
      <trkpt lat="47.63141" lon="-2.94682">
        <ele>15.78</ele>
        <time>2021-07-27T09:42:15.378Z</time>
      </trkpt>
      <trkpt lat="47.6313" lon="-2.94684">
        <ele>12.46</ele>
        <time>2021-07-27T09:42:24.387Z</time>
      </trkpt>
      <trkpt lat="47.63119" lon="-2.94686">
        <ele>11</ele>
        <time>2021-07-27T09:42:33.808Z</time>
      </trkpt>
      <trkpt lat="47.63106" lon="-2.94691">
        <ele>11.07</ele>
        <time>2021-07-27T09:42:43.656Z</time>
      </trkpt>
      <trkpt lat="47.63093" lon="-2.94696">
        <ele>10.07</ele>
        <time>2021-07-27T09:42:53.546Z</time>
      </trkpt>
      <trkpt lat="47.6308" lon="-2.94703">
        <ele>9.33</ele>
        <time>2021-07-27T09:43:03.007Z</time>
      </trkpt>
      <trkpt lat="47.63067" lon="-2.94708">
        <ele>8.87</ele>
        <time>2021-07-27T09:43:12.448Z</time>
      </trkpt>
      <trkpt lat="47.63056" lon="-2.9471">
        <ele>8.34</ele>
        <time>2021-07-27T09:43:21.699Z</time>
      </trkpt>
      <trkpt lat="47.63044" lon="-2.94715">
        <ele>8.24</ele>
        <time>2021-07-27T09:43:31.611Z</time>
      </trkpt>
      <trkpt lat="47.63034" lon="-2.94726">
        <ele>8.21</ele>
        <time>2021-07-27T09:43:42.000Z</time>
      </trkpt>
      <trkpt lat="47.63037" lon="-2.94751">
        <ele>8.08</ele>
        <time>2021-07-27T09:43:51.548Z</time>
      </trkpt>
      <trkpt lat="47.63045" lon="-2.94766">
        <ele>8.17</ele>
        <time>2021-07-27T09:44:03.000Z</time>
      </trkpt>
      <trkpt lat="47.63046" lon="-2.94766">
        <ele>8.23</ele>
        <time>2021-07-27T09:44:13.000Z</time>
      </trkpt>
      <trkpt lat="47.63047" lon="-2.94764">
        <ele>9.71</ele>
        <time>2021-07-27T09:44:23.000Z</time>
      </trkpt>
      <trkpt lat="47.63052" lon="-2.94776">
        <ele>9.92</ele>
        <time>2021-07-27T09:44:34.000Z</time>
      </trkpt>
      <trkpt lat="47.63052" lon="-2.94784">
        <ele>9.98</ele>
        <time>2021-07-27T09:44:43.209Z</time>
      </trkpt>
      <trkpt lat="47.63052" lon="-2.94801">
        <ele>10.27</ele>
        <time>2021-07-27T09:44:52.626Z</time>
      </trkpt>
      <trkpt lat="47.63054" lon="-2.94811">
        <ele>10.31</ele>
        <time>2021-07-27T09:45:01.647Z</time>
      </trkpt>
      <trkpt lat="47.63054" lon="-2.94816">
        <ele>10.23</ele>
        <time>2021-07-27T09:45:11.000Z</time>
      </trkpt>
      <trkpt lat="47.63055" lon="-2.94815">
        <ele>10.26</ele>
        <time>2021-07-27T09:45:21.000Z</time>
      </trkpt>
      <trkpt lat="47.63055" lon="-2.94813">
        <ele>10.23</ele>
        <time>2021-07-27T09:45:31.000Z</time>
      </trkpt>
      <trkpt lat="47.63055" lon="-2.94806">
        <ele>9.92</ele>
        <time>2021-07-27T09:45:41.000Z</time>
      </trkpt>
      <trkpt lat="47.63054" lon="-2.94793">
        <ele>9.72</ele>
        <time>2021-07-27T09:45:50.148Z</time>
      </trkpt>
      <trkpt lat="47.6305" lon="-2.94777">
        <ele>9.61</ele>
        <time>2021-07-27T09:46:00.000Z</time>
      </trkpt>
      <trkpt lat="47.63046" lon="-2.9477">
        <ele>9.49</ele>
        <time>2021-07-27T09:46:09.447Z</time>
      </trkpt>
      <trkpt lat="47.63033" lon="-2.94769">
        <ele>9.8</ele>
        <time>2021-07-27T09:46:18.786Z</time>
      </trkpt>
      <trkpt lat="47.63023" lon="-2.94766">
        <ele>9.82</ele>
        <time>2021-07-27T09:46:28.000Z</time>
      </trkpt>
      <trkpt lat="47.63011" lon="-2.94768">
        <ele>9.83</ele>
        <time>2021-07-27T09:46:37.726Z</time>
      </trkpt>
      <trkpt lat="47.62999" lon="-2.94767">
        <ele>9.84</ele>
        <time>2021-07-27T09:46:48.000Z</time>
      </trkpt>
      <trkpt lat="47.62988" lon="-2.94762">
        <ele>9.9</ele>
        <time>2021-07-27T09:46:57.827Z</time>
      </trkpt>
      <trkpt lat="47.62979" lon="-2.94761">
        <ele>9.77</ele>
        <time>2021-07-27T09:47:08.000Z</time>
      </trkpt>
      <trkpt lat="47.62967" lon="-2.9476">
        <ele>3.84</ele>
        <time>2021-07-27T09:47:17.727Z</time>
      </trkpt>
      <trkpt lat="47.62955" lon="-2.94759">
        <ele>1.75</ele>
        <time>2021-07-27T09:47:27.466Z</time>
      </trkpt>
      <trkpt lat="47.62942" lon="-2.94761">
        <ele>-0.88</ele>
        <time>2021-07-27T09:47:36.757Z</time>
      </trkpt>
      <trkpt lat="47.6293" lon="-2.9476">
        <ele>-8.74</ele>
        <time>2021-07-27T09:47:46.667Z</time>
      </trkpt>
      <trkpt lat="47.6292" lon="-2.94765">
        <ele>-9.59</ele>
        <time>2021-07-27T09:47:55.868Z</time>
      </trkpt>
      <trkpt lat="47.62911" lon="-2.94775">
        <ele>-8.01</ele>
        <time>2021-07-27T09:48:05.000Z</time>
      </trkpt>
      <trkpt lat="47.62903" lon="-2.94782">
        <ele>6.78</ele>
        <time>2021-07-27T09:48:14.387Z</time>
      </trkpt>
      <trkpt lat="47.62892" lon="-2.94777">
        <ele>-13.78</ele>
        <time>2021-07-27T09:48:23.607Z</time>
      </trkpt>
      <trkpt lat="47.62882" lon="-2.94765">
        <ele>7.07</ele>
        <time>2021-07-27T09:48:32.906Z</time>
      </trkpt>
      <trkpt lat="47.62877" lon="-2.9476">
        <ele>0.61</ele>
        <time>2021-07-27T09:48:42.000Z</time>
      </trkpt>
      <trkpt lat="47.62866" lon="-2.9477">
        <ele>1.44</ele>
        <time>2021-07-27T09:48:52.000Z</time>
      </trkpt>
      <trkpt lat="47.62852" lon="-2.94778">
        <ele>0.01</ele>
        <time>2021-07-27T09:49:01.567Z</time>
      </trkpt>
      <trkpt lat="47.62842" lon="-2.94788">
        <ele>8.98</ele>
        <time>2021-07-27T09:49:10.766Z</time>
      </trkpt>
      <trkpt lat="47.62834" lon="-2.94791">
        <ele>8.86</ele>
        <time>2021-07-27T09:49:20.000Z</time>
      </trkpt>
      <trkpt lat="47.62824" lon="-2.948">
        <ele>-7.08</ele>
        <time>2021-07-27T09:49:29.468Z</time>
      </trkpt>
      <trkpt lat="47.62816" lon="-2.94809">
        <ele>-3.09</ele>
        <time>2021-07-27T09:49:38.848Z</time>
      </trkpt>
      <trkpt lat="47.62809" lon="-2.94814">
        <ele>-8.86</ele>
        <time>2021-07-27T09:49:48.000Z</time>
      </trkpt>
      <trkpt lat="47.628" lon="-2.94801">
        <ele>21.44</ele>
        <time>2021-07-27T09:49:57.227Z</time>
      </trkpt>
      <trkpt lat="47.62792" lon="-2.94805">
        <ele>-0.1</ele>
        <time>2021-07-27T09:50:06.667Z</time>
      </trkpt>
      <trkpt lat="47.62781" lon="-2.94808">
        <ele>-5.08</ele>
        <time>2021-07-27T09:50:15.847Z</time>
      </trkpt>
      <trkpt lat="47.62773" lon="-2.94817">
        <ele>-16.65</ele>
        <time>2021-07-27T09:50:25.647Z</time>
      </trkpt>
      <trkpt lat="47.62765" lon="-2.94828">
        <ele>7.67</ele>
        <time>2021-07-27T09:50:34.846Z</time>
      </trkpt>
      <trkpt lat="47.62757" lon="-2.94839">
        <ele>-16.26</ele>
        <time>2021-07-27T09:50:44.000Z</time>
      </trkpt>
      <trkpt lat="47.62757" lon="-2.94857">
        <ele>1.16</ele>
        <time>2021-07-27T09:50:53.568Z</time>
      </trkpt>
      <trkpt lat="47.62761" lon="-2.94873">
        <ele>11.04</ele>
        <time>2021-07-27T09:51:02.866Z</time>
      </trkpt>
      <trkpt lat="47.62764" lon="-2.94886">
        <ele>-8.97</ele>
        <time>2021-07-27T09:51:12.000Z</time>
      </trkpt>
      <trkpt lat="47.62771" lon="-2.94902">
        <ele>-7.75</ele>
        <time>2021-07-27T09:51:21.668Z</time>
      </trkpt>
      <trkpt lat="47.62778" lon="-2.94922">
        <ele>0.82</ele>
        <time>2021-07-27T09:51:31.507Z</time>
      </trkpt>
      <trkpt lat="47.62783" lon="-2.94934">
        <ele>20.74</ele>
        <time>2021-07-27T09:51:40.746Z</time>
      </trkpt>
      <trkpt lat="47.62789" lon="-2.94949">
        <ele>-7.41</ele>
        <time>2021-07-27T09:51:50.136Z</time>
      </trkpt>
      <trkpt lat="47.62793" lon="-2.94962">
        <ele>-5.28</ele>
        <time>2021-07-27T09:51:59.396Z</time>
      </trkpt>
      <trkpt lat="47.62795" lon="-2.94977">
        <ele>6.63</ele>
        <time>2021-07-27T09:52:08.698Z</time>
      </trkpt>
      <trkpt lat="47.62798" lon="-2.94991">
        <ele>6.6</ele>
        <time>2021-07-27T09:52:18.498Z</time>
      </trkpt>
      <trkpt lat="47.62802" lon="-2.95006">
        <ele>6.15</ele>
        <time>2021-07-27T09:52:27.627Z</time>
      </trkpt>
      <trkpt lat="47.62793" lon="-2.95014">
        <ele>13.2</ele>
        <time>2021-07-27T09:52:36.807Z</time>
      </trkpt>
      <trkpt lat="47.62782" lon="-2.95022">
        <ele>-7.49</ele>
        <time>2021-07-27T09:52:45.927Z</time>
      </trkpt>
      <trkpt lat="47.62772" lon="-2.95033">
        <ele>4.35</ele>
        <time>2021-07-27T09:52:55.487Z</time>
      </trkpt>
      <trkpt lat="47.62764" lon="-2.95045">
        <ele>3.43</ele>
        <time>2021-07-27T09:53:05.428Z</time>
      </trkpt>
      <trkpt lat="47.62757" lon="-2.95058">
        <ele>0.91</ele>
        <time>2021-07-27T09:53:14.808Z</time>
      </trkpt>
      <trkpt lat="47.62749" lon="-2.95065">
        <ele>-3.7</ele>
        <time>2021-07-27T09:53:24.646Z</time>
      </trkpt>
      <trkpt lat="47.62745" lon="-2.95082">
        <ele>1.17</ele>
        <time>2021-07-27T09:53:34.668Z</time>
      </trkpt>
      <trkpt lat="47.62745" lon="-2.95099">
        <ele>12.04</ele>
        <time>2021-07-27T09:53:44.000Z</time>
      </trkpt>
      <trkpt lat="47.6274" lon="-2.95116">
        <ele>17.25</ele>
        <time>2021-07-27T09:53:53.488Z</time>
      </trkpt>
      <trkpt lat="47.62736" lon="-2.95131">
        <ele>-0.99</ele>
        <time>2021-07-27T09:54:03.000Z</time>
      </trkpt>
      <trkpt lat="47.62735" lon="-2.95151">
        <ele>11.61</ele>
        <time>2021-07-27T09:54:13.156Z</time>
      </trkpt>
      <trkpt lat="47.62732" lon="-2.95166">
        <ele>3.51</ele>
        <time>2021-07-27T09:54:22.507Z</time>
      </trkpt>
      <trkpt lat="47.62727" lon="-2.95181">
        <ele>-10.09</ele>
        <time>2021-07-27T09:54:31.713Z</time>
      </trkpt>
      <trkpt lat="47.6272" lon="-2.95193">
        <ele>12.28</ele>
        <time>2021-07-27T09:54:41.746Z</time>
      </trkpt>
      <trkpt lat="47.62711" lon="-2.95205">
        <ele>6.82</ele>
        <time>2021-07-27T09:54:51.817Z</time>
      </trkpt>
      <trkpt lat="47.62707" lon="-2.95221">
        <ele>2.78</ele>
        <time>2021-07-27T09:55:01.017Z</time>
      </trkpt>
      <trkpt lat="47.62704" lon="-2.9524">
        <ele>5.47</ele>
        <time>2021-07-27T09:55:10.697Z</time>
      </trkpt>
      <trkpt lat="47.627" lon="-2.95262">
        <ele>-5.06</ele>
        <time>2021-07-27T09:55:19.722Z</time>
      </trkpt>
      <trkpt lat="47.62693" lon="-2.95268">
        <ele>-1.06</ele>
        <time>2021-07-27T09:55:28.823Z</time>
      </trkpt>
      <trkpt lat="47.62683" lon="-2.95272">
        <ele>-1.98</ele>
        <time>2021-07-27T09:55:38.000Z</time>
      </trkpt>
      <trkpt lat="47.62677" lon="-2.95288">
        <ele>-1.65</ele>
        <time>2021-07-27T09:55:47.368Z</time>
      </trkpt>
      <trkpt lat="47.62672" lon="-2.95303">
        <ele>4.71</ele>
        <time>2021-07-27T09:55:57.000Z</time>
      </trkpt>
      <trkpt lat="47.62666" lon="-2.9532">
        <ele>8.79</ele>
        <time>2021-07-27T09:56:06.192Z</time>
      </trkpt>
      <trkpt lat="47.62666" lon="-2.95338">
        <ele>-3.69</ele>
        <time>2021-07-27T09:56:15.452Z</time>
      </trkpt>
      <trkpt lat="47.62668" lon="-2.95355">
        <ele>21.44</ele>
        <time>2021-07-27T09:56:24.492Z</time>
      </trkpt>
      <trkpt lat="47.62668" lon="-2.95374">
        <ele>6.65</ele>
        <time>2021-07-27T09:56:34.293Z</time>
      </trkpt>
      <trkpt lat="47.62665" lon="-2.95391">
        <ele>7.26</ele>
        <time>2021-07-27T09:56:44.191Z</time>
      </trkpt>
      <trkpt lat="47.62661" lon="-2.95406">
        <ele>15.59</ele>
        <time>2021-07-27T09:56:53.292Z</time>
      </trkpt>
      <trkpt lat="47.62655" lon="-2.95423">
        <ele>8.61</ele>
        <time>2021-07-27T09:57:02.553Z</time>
      </trkpt>
      <trkpt lat="47.62652" lon="-2.95442">
        <ele>4.26</ele>
        <time>2021-07-27T09:57:13.000Z</time>
      </trkpt>
      <trkpt lat="47.62645" lon="-2.95459">
        <ele>2.1</ele>
        <time>2021-07-27T09:57:22.895Z</time>
      </trkpt>
      <trkpt lat="47.62639" lon="-2.95471">
        <ele>2.13</ele>
        <time>2021-07-27T09:57:33.000Z</time>
      </trkpt>
      <trkpt lat="47.62635" lon="-2.9549">
        <ele>17.3</ele>
        <time>2021-07-27T09:57:42.413Z</time>
      </trkpt>
      <trkpt lat="47.6263" lon="-2.95506">
        <ele>17.26</ele>
        <time>2021-07-27T09:57:52.693Z</time>
      </trkpt>
      <trkpt lat="47.62629" lon="-2.95523">
        <ele>17.29</ele>
        <time>2021-07-27T09:58:01.932Z</time>
      </trkpt>
      <trkpt lat="47.62626" lon="-2.95538">
        <ele>17.37</ele>
        <time>2021-07-27T09:58:11.000Z</time>
      </trkpt>
      <trkpt lat="47.62621" lon="-2.95556">
        <ele>18.83</ele>
        <time>2021-07-27T09:58:20.433Z</time>
      </trkpt>
      <trkpt lat="47.6262" lon="-2.95574">
        <ele>19.17</ele>
        <time>2021-07-27T09:58:29.833Z</time>
      </trkpt>
      <trkpt lat="47.62619" lon="-2.9559">
        <ele>19.14</ele>
        <time>2021-07-27T09:58:39.162Z</time>
      </trkpt>
      <trkpt lat="47.62621" lon="-2.95607">
        <ele>19.3</ele>
        <time>2021-07-27T09:58:48.552Z</time>
      </trkpt>
      <trkpt lat="47.62627" lon="-2.95621">
        <ele>19.3</ele>
        <time>2021-07-27T09:58:57.885Z</time>
      </trkpt>
      <trkpt lat="47.62632" lon="-2.95635">
        <ele>19.22</ele>
        <time>2021-07-27T09:59:07.232Z</time>
      </trkpt>
      <trkpt lat="47.62639" lon="-2.95645">
        <ele>19.14</ele>
        <time>2021-07-27T09:59:16.553Z</time>
      </trkpt>
      <trkpt lat="47.62649" lon="-2.95656">
        <ele>19.19</ele>
        <time>2021-07-27T09:59:25.773Z</time>
      </trkpt>
      <trkpt lat="47.62659" lon="-2.95666">
        <ele>19.18</ele>
        <time>2021-07-27T09:59:35.513Z</time>
      </trkpt>
      <trkpt lat="47.62668" lon="-2.95676">
        <ele>13.29</ele>
        <time>2021-07-27T09:59:44.873Z</time>
      </trkpt>
      <trkpt lat="47.62675" lon="-2.95686">
        <ele>11.37</ele>
        <time>2021-07-27T09:59:54.000Z</time>
      </trkpt>
      <trkpt lat="47.62684" lon="-2.95697">
        <ele>-1.93</ele>
        <time>2021-07-27T10:00:03.891Z</time>
      </trkpt>
      <trkpt lat="47.6269" lon="-2.95706">
        <ele>4.53</ele>
        <time>2021-07-27T10:00:13.000Z</time>
      </trkpt>
      <trkpt lat="47.62701" lon="-2.95721">
        <ele>11.38</ele>
        <time>2021-07-27T10:00:22.213Z</time>
      </trkpt>
      <trkpt lat="47.6271" lon="-2.9573">
        <ele>15.38</ele>
        <time>2021-07-27T10:00:31.632Z</time>
      </trkpt>
      <trkpt lat="47.62721" lon="-2.95726">
        <ele>15.27</ele>
        <time>2021-07-27T10:00:41.603Z</time>
      </trkpt>
      <trkpt lat="47.62733" lon="-2.95722">
        <ele>7.77</ele>
        <time>2021-07-27T10:00:51.532Z</time>
      </trkpt>
      <trkpt lat="47.62743" lon="-2.95717">
        <ele>-0.87</ele>
        <time>2021-07-27T10:01:00.852Z</time>
      </trkpt>
      <trkpt lat="47.62745" lon="-2.95726">
        <ele>6.63</ele>
        <time>2021-07-27T10:01:10.000Z</time>
      </trkpt>
      <trkpt lat="47.62747" lon="-2.95747">
        <ele>16.89</ele>
        <time>2021-07-27T10:01:19.493Z</time>
      </trkpt>
      <trkpt lat="47.62744" lon="-2.9576">
        <ele>9.75</ele>
        <time>2021-07-27T10:01:29.000Z</time>
      </trkpt>
      <trkpt lat="47.62738" lon="-2.95776">
        <ele>2.26</ele>
        <time>2021-07-27T10:01:38.692Z</time>
      </trkpt>
      <trkpt lat="47.62739" lon="-2.95792">
        <ele>1.37</ele>
        <time>2021-07-27T10:01:47.812Z</time>
      </trkpt>
      <trkpt lat="47.6274" lon="-2.95806">
        <ele>9.23</ele>
        <time>2021-07-27T10:01:56.914Z</time>
      </trkpt>
      <trkpt lat="47.62744" lon="-2.95821">
        <ele>7.64</ele>
        <time>2021-07-27T10:02:06.332Z</time>
      </trkpt>
      <trkpt lat="47.62747" lon="-2.95835">
        <ele>6.93</ele>
        <time>2021-07-27T10:02:15.793Z</time>
      </trkpt>
      <trkpt lat="47.62752" lon="-2.9585">
        <ele>6.41</ele>
        <time>2021-07-27T10:02:25.593Z</time>
      </trkpt>
      <trkpt lat="47.62761" lon="-2.95857">
        <ele>3.31</ele>
        <time>2021-07-27T10:02:35.732Z</time>
      </trkpt>
      <trkpt lat="47.62765" lon="-2.95854">
        <ele>2.46</ele>
        <time>2021-07-27T10:02:46.000Z</time>
      </trkpt>
      <trkpt lat="47.6277" lon="-2.95845">
        <ele>1.98</ele>
        <time>2021-07-27T10:02:55.093Z</time>
      </trkpt>
      <trkpt lat="47.62778" lon="-2.95839">
        <ele>1.98</ele>
        <time>2021-07-27T10:03:04.747Z</time>
      </trkpt>
      <trkpt lat="47.6278" lon="-2.95838">
        <ele>2.04</ele>
        <time>2021-07-27T10:03:13.927Z</time>
      </trkpt>
      <trkpt lat="47.62783" lon="-2.95835">
        <ele>2.07</ele>
        <time>2021-07-27T10:03:24.000Z</time>
      </trkpt>
      <trkpt lat="47.62794" lon="-2.95832">
        <ele>2.1</ele>
        <time>2021-07-27T10:03:33.034Z</time>
      </trkpt>
      <trkpt lat="47.628" lon="-2.95833">
        <ele>2.09</ele>
        <time>2021-07-27T10:03:43.000Z</time>
      </trkpt>
      <trkpt lat="47.62813" lon="-2.95836">
        <ele>-4.29</ele>
        <time>2021-07-27T10:03:52.636Z</time>
      </trkpt>
      <trkpt lat="47.62819" lon="-2.95834">
        <ele>15.65</ele>
        <time>2021-07-27T10:04:01.757Z</time>
      </trkpt>
      <trkpt lat="47.62828" lon="-2.95835">
        <ele>8.91</ele>
        <time>2021-07-27T10:04:12.000Z</time>
      </trkpt>
      <trkpt lat="47.62837" lon="-2.95834">
        <ele>10.45</ele>
        <time>2021-07-27T10:04:21.981Z</time>
      </trkpt>
      <trkpt lat="47.62847" lon="-2.95835">
        <ele>9.07</ele>
        <time>2021-07-27T10:04:31.000Z</time>
      </trkpt>
      <trkpt lat="47.62856" lon="-2.95847">
        <ele>7.86</ele>
        <time>2021-07-27T10:04:41.312Z</time>
      </trkpt>
      <trkpt lat="47.62864" lon="-2.95857">
        <ele>22.19</ele>
        <time>2021-07-27T10:04:51.242Z</time>
      </trkpt>
      <trkpt lat="47.62873" lon="-2.95866">
        <ele>-0.23</ele>
        <time>2021-07-27T10:05:00.681Z</time>
      </trkpt>
      <trkpt lat="47.62885" lon="-2.95871">
        <ele>1.06</ele>
        <time>2021-07-27T10:05:10.002Z</time>
      </trkpt>
      <trkpt lat="47.62895" lon="-2.95873">
        <ele>1.07</ele>
        <time>2021-07-27T10:05:20.000Z</time>
      </trkpt>
      <trkpt lat="47.62906" lon="-2.95878">
        <ele>10.44</ele>
        <time>2021-07-27T10:05:29.760Z</time>
      </trkpt>
      <trkpt lat="47.62917" lon="-2.95885">
        <ele>9.94</ele>
        <time>2021-07-27T10:05:39.100Z</time>
      </trkpt>
      <trkpt lat="47.62926" lon="-2.95883">
        <ele>30.77</ele>
        <time>2021-07-27T10:05:49.000Z</time>
      </trkpt>
      <trkpt lat="47.62939" lon="-2.95879">
        <ele>-0.74</ele>
        <time>2021-07-27T10:05:58.617Z</time>
      </trkpt>
      <trkpt lat="47.62948" lon="-2.95873">
        <ele>-5.28</ele>
        <time>2021-07-27T10:06:08.000Z</time>
      </trkpt>
      <trkpt lat="47.6296" lon="-2.95867">
        <ele>-5.3</ele>
        <time>2021-07-27T10:06:18.080Z</time>
      </trkpt>
      <trkpt lat="47.62967" lon="-2.95866">
        <ele>-5.27</ele>
        <time>2021-07-27T10:06:27.161Z</time>
      </trkpt>
      <trkpt lat="47.62978" lon="-2.9587">
        <ele>-5.16</ele>
        <time>2021-07-27T10:06:36.501Z</time>
      </trkpt>
      <trkpt lat="47.6299" lon="-2.95871">
        <ele>-5.06</ele>
        <time>2021-07-27T10:06:46.060Z</time>
      </trkpt>
      <trkpt lat="47.63003" lon="-2.95864">
        <ele>-4.99</ele>
        <time>2021-07-27T10:06:55.801Z</time>
      </trkpt>
      <trkpt lat="47.63011" lon="-2.95858">
        <ele>4.24</ele>
        <time>2021-07-27T10:07:05.060Z</time>
      </trkpt>
      <trkpt lat="47.63021" lon="-2.95859">
        <ele>23.36</ele>
        <time>2021-07-27T10:07:14.111Z</time>
      </trkpt>
      <trkpt lat="47.63029" lon="-2.95867">
        <ele>16.12</ele>
        <time>2021-07-27T10:07:23.860Z</time>
      </trkpt>
      <trkpt lat="47.63041" lon="-2.95865">
        <ele>15.33</ele>
        <time>2021-07-27T10:07:33.211Z</time>
      </trkpt>
      <trkpt lat="47.63049" lon="-2.95853">
        <ele>-1.44</ele>
        <time>2021-07-27T10:07:42.821Z</time>
      </trkpt>
      <trkpt lat="47.63055" lon="-2.9584">
        <ele>0.95</ele>
        <time>2021-07-27T10:07:53.000Z</time>
      </trkpt>
      <trkpt lat="47.63059" lon="-2.95834">
        <ele>2.58</ele>
        <time>2021-07-27T10:08:03.003Z</time>
      </trkpt>
      <trkpt lat="47.63063" lon="-2.95827">
        <ele>3.39</ele>
        <time>2021-07-27T10:08:13.000Z</time>
      </trkpt>
      <trkpt lat="47.63063" lon="-2.95826">
        <ele>3.63</ele>
        <time>2021-07-27T10:08:23.000Z</time>
      </trkpt>
      <trkpt lat="47.63064" lon="-2.95818">
        <ele>3.89</ele>
        <time>2021-07-27T10:08:32.511Z</time>
      </trkpt>
      <trkpt lat="47.63072" lon="-2.95806">
        <ele>4.06</ele>
        <time>2021-07-27T10:08:41.720Z</time>
      </trkpt>
      <trkpt lat="47.63072" lon="-2.95792">
        <ele>3.92</ele>
        <time>2021-07-27T10:08:50.991Z</time>
      </trkpt>
      <trkpt lat="47.63073" lon="-2.95778">
        <ele>4.01</ele>
        <time>2021-07-27T10:09:00.912Z</time>
      </trkpt>
      <trkpt lat="47.63073" lon="-2.95775">
        <ele>4.12</ele>
        <time>2021-07-27T10:09:11.000Z</time>
      </trkpt>
      <trkpt lat="47.63075" lon="-2.95771">
        <ele>4.18</ele>
        <time>2021-07-27T10:09:20.711Z</time>
      </trkpt>
      <trkpt lat="47.63079" lon="-2.95758">
        <ele>6.88</ele>
        <time>2021-07-27T10:09:31.000Z</time>
      </trkpt>
      <trkpt lat="47.63086" lon="-2.95744">
        <ele>6.81</ele>
        <time>2021-07-27T10:09:41.000Z</time>
      </trkpt>
      <trkpt lat="47.63096" lon="-2.95739">
        <ele>9.58</ele>
        <time>2021-07-27T10:09:50.601Z</time>
      </trkpt>
      <trkpt lat="47.63107" lon="-2.95735">
        <ele>10.1</ele>
        <time>2021-07-27T10:09:59.701Z</time>
      </trkpt>
      <trkpt lat="47.63119" lon="-2.95731">
        <ele>10.17</ele>
        <time>2021-07-27T10:10:08.941Z</time>
      </trkpt>
      <trkpt lat="47.63125" lon="-2.95723">
        <ele>10.32</ele>
        <time>2021-07-27T10:10:18.101Z</time>
      </trkpt>
      <trkpt lat="47.63135" lon="-2.95713">
        <ele>10.37</ele>
        <time>2021-07-27T10:10:27.821Z</time>
      </trkpt>
      <trkpt lat="47.63145" lon="-2.95704">
        <ele>10.43</ele>
        <time>2021-07-27T10:10:37.760Z</time>
      </trkpt>
      <trkpt lat="47.63155" lon="-2.95696">
        <ele>10.51</ele>
        <time>2021-07-27T10:10:47.246Z</time>
      </trkpt>
      <trkpt lat="47.63162" lon="-2.95683">
        <ele>10.5</ele>
        <time>2021-07-27T10:10:56.780Z</time>
      </trkpt>
      <trkpt lat="47.63167" lon="-2.95673">
        <ele>10.42</ele>
        <time>2021-07-27T10:11:05.861Z</time>
      </trkpt>
      <trkpt lat="47.63168" lon="-2.95662">
        <ele>15</ele>
        <time>2021-07-27T10:11:15.781Z</time>
      </trkpt>
      <trkpt lat="47.63168" lon="-2.95647">
        <ele>14.93</ele>
        <time>2021-07-27T10:11:25.500Z</time>
      </trkpt>
      <trkpt lat="47.63173" lon="-2.95635">
        <ele>15.05</ele>
        <time>2021-07-27T10:11:35.041Z</time>
      </trkpt>
      <trkpt lat="47.63178" lon="-2.95623">
        <ele>14.83</ele>
        <time>2021-07-27T10:11:45.000Z</time>
      </trkpt>
      <trkpt lat="47.6318" lon="-2.9561">
        <ele>14.7</ele>
        <time>2021-07-27T10:11:55.000Z</time>
      </trkpt>
      <trkpt lat="47.63182" lon="-2.95596">
        <ele>14.74</ele>
        <time>2021-07-27T10:12:04.121Z</time>
      </trkpt>
      <trkpt lat="47.63186" lon="-2.9558">
        <ele>14.65</ele>
        <time>2021-07-27T10:12:13.461Z</time>
      </trkpt>
      <trkpt lat="47.63198" lon="-2.95561">
        <ele>14.55</ele>
        <time>2021-07-27T10:12:23.000Z</time>
      </trkpt>
      <trkpt lat="47.63212" lon="-2.95551">
        <ele>14.5</ele>
        <time>2021-07-27T10:12:32.383Z</time>
      </trkpt>
      <trkpt lat="47.63224" lon="-2.95544">
        <ele>25.33</ele>
        <time>2021-07-27T10:12:41.543Z</time>
      </trkpt>
      <trkpt lat="47.63234" lon="-2.95539">
        <ele>14.76</ele>
        <time>2021-07-27T10:12:51.107Z</time>
      </trkpt>
      <trkpt lat="47.63245" lon="-2.95534">
        <ele>33.21</ele>
        <time>2021-07-27T10:13:00.933Z</time>
      </trkpt>
      <trkpt lat="47.63257" lon="-2.95528">
        <ele>25.33</ele>
        <time>2021-07-27T10:13:11.334Z</time>
      </trkpt>
      <trkpt lat="47.63266" lon="-2.95525">
        <ele>14.44</ele>
        <time>2021-07-27T10:13:20.602Z</time>
      </trkpt>
      <trkpt lat="47.63275" lon="-2.95524">
        <ele>23.93</ele>
        <time>2021-07-27T10:13:30.000Z</time>
      </trkpt>
      <trkpt lat="47.63286" lon="-2.95532">
        <ele>26.83</ele>
        <time>2021-07-27T10:13:40.000Z</time>
      </trkpt>
      <trkpt lat="47.63298" lon="-2.95539">
        <ele>24.15</ele>
        <time>2021-07-27T10:13:51.000Z</time>
      </trkpt>
      <trkpt lat="47.63311" lon="-2.95548">
        <ele>6.74</ele>
        <time>2021-07-27T10:14:00.407Z</time>
      </trkpt>
      <trkpt lat="47.63321" lon="-2.95556">
        <ele>18.01</ele>
        <time>2021-07-27T10:14:09.988Z</time>
      </trkpt>
      <trkpt lat="47.63331" lon="-2.95568">
        <ele>23.77</ele>
        <time>2021-07-27T10:14:21.000Z</time>
      </trkpt>
      <trkpt lat="47.63342" lon="-2.95576">
        <ele>28.87</ele>
        <time>2021-07-27T10:14:30.975Z</time>
      </trkpt>
      <trkpt lat="47.63352" lon="-2.95585">
        <ele>12.14</ele>
        <time>2021-07-27T10:14:40.914Z</time>
      </trkpt>
      <trkpt lat="47.63362" lon="-2.95593">
        <ele>25.98</ele>
        <time>2021-07-27T10:14:51.000Z</time>
      </trkpt>
      <trkpt lat="47.63373" lon="-2.95593">
        <ele>12.41</ele>
        <time>2021-07-27T10:15:01.000Z</time>
      </trkpt>
      <trkpt lat="47.63381" lon="-2.956">
        <ele>20.95</ele>
        <time>2021-07-27T10:15:10.697Z</time>
      </trkpt>
      <trkpt lat="47.63381" lon="-2.95607">
        <ele>25.68</ele>
        <time>2021-07-27T10:15:21.000Z</time>
      </trkpt>
      <trkpt lat="47.63375" lon="-2.95625">
        <ele>25.75</ele>
        <time>2021-07-27T10:15:30.408Z</time>
      </trkpt>
      <trkpt lat="47.63367" lon="-2.95638">
        <ele>25.82</ele>
        <time>2021-07-27T10:15:41.000Z</time>
      </trkpt>
      <trkpt lat="47.63353" lon="-2.95638">
        <ele>25.82</ele>
        <time>2021-07-27T10:15:51.116Z</time>
      </trkpt>
      <trkpt lat="47.63343" lon="-2.95643">
        <ele>25.79</ele>
        <time>2021-07-27T10:16:00.177Z</time>
      </trkpt>
      <trkpt lat="47.63338" lon="-2.95643">
        <ele>25.73</ele>
        <time>2021-07-27T10:16:11.000Z</time>
      </trkpt>
      <trkpt lat="47.63335" lon="-2.95642">
        <ele>25.73</ele>
        <time>2021-07-27T10:16:21.220Z</time>
      </trkpt>
      <trkpt lat="47.63327" lon="-2.95656">
        <ele>25.62</ele>
        <time>2021-07-27T10:16:30.637Z</time>
      </trkpt>
      <trkpt lat="47.63328" lon="-2.95661">
        <ele>25.6</ele>
        <time>2021-07-27T10:16:39.816Z</time>
      </trkpt>
      <trkpt lat="47.63323" lon="-2.95665">
        <ele>25.66</ele>
        <time>2021-07-27T10:16:49.896Z</time>
      </trkpt>
      <trkpt lat="47.63315" lon="-2.95673">
        <ele>25.58</ele>
        <time>2021-07-27T10:16:59.000Z</time>
      </trkpt>
      <trkpt lat="47.63306" lon="-2.95681">
        <ele>25.68</ele>
        <time>2021-07-27T10:17:08.383Z</time>
      </trkpt>
      <trkpt lat="47.63302" lon="-2.95685">
        <ele>25.69</ele>
        <time>2021-07-27T10:17:17.777Z</time>
      </trkpt>
      <trkpt lat="47.63293" lon="-2.95691">
        <ele>25.66</ele>
        <time>2021-07-27T10:17:26.915Z</time>
      </trkpt>
      <trkpt lat="47.63284" lon="-2.95701">
        <ele>25.67</ele>
        <time>2021-07-27T10:17:36.883Z</time>
      </trkpt>
      <trkpt lat="47.63279" lon="-2.95716">
        <ele>25.73</ele>
        <time>2021-07-27T10:17:46.084Z</time>
      </trkpt>
      <trkpt lat="47.63279" lon="-2.9572">
        <ele>25.8</ele>
        <time>2021-07-27T10:17:55.953Z</time>
      </trkpt>
      <trkpt lat="47.63276" lon="-2.95723">
        <ele>25.8</ele>
        <time>2021-07-27T10:18:07.000Z</time>
      </trkpt>
      <trkpt lat="47.63276" lon="-2.95724">
        <ele>25.8</ele>
        <time>2021-07-27T10:18:21.000Z</time>
      </trkpt>
      <trkpt lat="47.6328" lon="-2.95731">
        <ele>25.89</ele>
        <time>2021-07-27T10:18:30.449Z</time>
      </trkpt>
      <trkpt lat="47.63285" lon="-2.95732">
        <ele>25.74</ele>
        <time>2021-07-27T10:18:40.000Z</time>
      </trkpt>
      <trkpt lat="47.63286" lon="-2.95732">
        <ele>25.78</ele>
        <time>2021-07-27T10:18:49.514Z</time>
      </trkpt>
      <trkpt lat="47.63288" lon="-2.95734">
        <ele>25.75</ele>
        <time>2021-07-27T10:18:59.119Z</time>
      </trkpt>
      <trkpt lat="47.63292" lon="-2.95736">
        <ele>25.75</ele>
        <time>2021-07-27T10:19:08.510Z</time>
      </trkpt>
      <trkpt lat="47.63299" lon="-2.95735">
        <ele>25.81</ele>
        <time>2021-07-27T10:19:17.769Z</time>
      </trkpt>
      <trkpt lat="47.63305" lon="-2.95737">
        <ele>25.68</ele>
        <time>2021-07-27T10:19:27.000Z</time>
      </trkpt>
      <trkpt lat="47.63311" lon="-2.95742">
        <ele>25.78</ele>
        <time>2021-07-27T10:19:36.479Z</time>
      </trkpt>
      <trkpt lat="47.6332" lon="-2.95744">
        <ele>25.98</ele>
        <time>2021-07-27T10:19:46.000Z</time>
      </trkpt>
      <trkpt lat="47.63327" lon="-2.95745">
        <ele>25.82</ele>
        <time>2021-07-27T10:19:55.661Z</time>
      </trkpt>
      <trkpt lat="47.63332" lon="-2.95747">
        <ele>26.03</ele>
        <time>2021-07-27T10:20:05.000Z</time>
      </trkpt>
      <trkpt lat="47.6334" lon="-2.95767">
        <ele>25.9</ele>
        <time>2021-07-27T10:20:15.000Z</time>
      </trkpt>
      <trkpt lat="47.6335" lon="-2.95771">
        <ele>25.88</ele>
        <time>2021-07-27T10:20:26.000Z</time>
      </trkpt>
      <trkpt lat="47.63356" lon="-2.95762">
        <ele>25.81</ele>
        <time>2021-07-27T10:20:35.117Z</time>
      </trkpt>
      <trkpt lat="47.63366" lon="-2.95755">
        <ele>25.76</ele>
        <time>2021-07-27T10:20:44.498Z</time>
      </trkpt>
      <trkpt lat="47.63377" lon="-2.95746">
        <ele>0.38</ele>
        <time>2021-07-27T10:20:53.756Z</time>
      </trkpt>
      <trkpt lat="47.63383" lon="-2.95735">
        <ele>29.28</ele>
        <time>2021-07-27T10:21:04.000Z</time>
      </trkpt>
      <trkpt lat="47.63392" lon="-2.95724">
        <ele>8.92</ele>
        <time>2021-07-27T10:21:13.498Z</time>
      </trkpt>
      <trkpt lat="47.63401" lon="-2.95713">
        <ele>-2.01</ele>
        <time>2021-07-27T10:21:22.597Z</time>
      </trkpt>
      <trkpt lat="47.6341" lon="-2.95708">
        <ele>17.75</ele>
        <time>2021-07-27T10:21:31.598Z</time>
      </trkpt>
      <trkpt lat="47.63418" lon="-2.957">
        <ele>12.38</ele>
        <time>2021-07-27T10:21:41.356Z</time>
      </trkpt>
      <trkpt lat="47.63424" lon="-2.9569">
        <ele>19.61</ele>
        <time>2021-07-27T10:21:50.701Z</time>
      </trkpt>
      <trkpt lat="47.63433" lon="-2.95682">
        <ele>29</ele>
        <time>2021-07-27T10:21:59.788Z</time>
      </trkpt>
      <trkpt lat="47.63443" lon="-2.95675">
        <ele>26.49</ele>
        <time>2021-07-27T10:22:09.798Z</time>
      </trkpt>
      <trkpt lat="47.63451" lon="-2.95667">
        <ele>27.27</ele>
        <time>2021-07-27T10:22:19.808Z</time>
      </trkpt>
      <trkpt lat="47.63461" lon="-2.95657">
        <ele>-5.96</ele>
        <time>2021-07-27T10:22:30.000Z</time>
      </trkpt>
      <trkpt lat="47.63471" lon="-2.95643">
        <ele>24.97</ele>
        <time>2021-07-27T10:22:39.776Z</time>
      </trkpt>
      <trkpt lat="47.63478" lon="-2.95636">
        <ele>13.35</ele>
        <time>2021-07-27T10:22:48.856Z</time>
      </trkpt>
      <trkpt lat="47.63484" lon="-2.95632">
        <ele>27.25</ele>
        <time>2021-07-27T10:22:58.000Z</time>
      </trkpt>
      <trkpt lat="47.63493" lon="-2.9562">
        <ele>23.97</ele>
        <time>2021-07-27T10:23:08.015Z</time>
      </trkpt>
      <trkpt lat="47.63505" lon="-2.95619">
        <ele>27.87</ele>
        <time>2021-07-27T10:23:17.275Z</time>
      </trkpt>
      <trkpt lat="47.63516" lon="-2.95616">
        <ele>24.01</ele>
        <time>2021-07-27T10:23:26.836Z</time>
      </trkpt>
      <trkpt lat="47.63526" lon="-2.95607">
        <ele>23.86</ele>
        <time>2021-07-27T10:23:36.015Z</time>
      </trkpt>
      <trkpt lat="47.63534" lon="-2.95599">
        <ele>23.89</ele>
        <time>2021-07-27T10:23:45.017Z</time>
      </trkpt>
      <trkpt lat="47.63542" lon="-2.95586">
        <ele>23.85</ele>
        <time>2021-07-27T10:23:55.137Z</time>
      </trkpt>
      <trkpt lat="47.63546" lon="-2.9558">
        <ele>23.78</ele>
        <time>2021-07-27T10:24:05.000Z</time>
      </trkpt>
      <trkpt lat="47.63553" lon="-2.95582">
        <ele>23.83</ele>
        <time>2021-07-27T10:24:16.000Z</time>
      </trkpt>
      <trkpt lat="47.6356" lon="-2.95578">
        <ele>23.81</ele>
        <time>2021-07-27T10:24:25.387Z</time>
      </trkpt>
      <trkpt lat="47.63568" lon="-2.95572">
        <ele>23.82</ele>
        <time>2021-07-27T10:24:35.000Z</time>
      </trkpt>
      <trkpt lat="47.63572" lon="-2.95565">
        <ele>23.73</ele>
        <time>2021-07-27T10:24:46.000Z</time>
      </trkpt>
      <trkpt lat="47.63574" lon="-2.95561">
        <ele>23.68</ele>
        <time>2021-07-27T10:24:56.000Z</time>
      </trkpt>
      <trkpt lat="47.6358" lon="-2.95557">
        <ele>23.88</ele>
        <time>2021-07-27T10:25:05.969Z</time>
      </trkpt>
      <trkpt lat="47.63591" lon="-2.95551">
        <ele>23.91</ele>
        <time>2021-07-27T10:25:15.896Z</time>
      </trkpt>
      <trkpt lat="47.63595" lon="-2.95546">
        <ele>24.11</ele>
        <time>2021-07-27T10:25:25.134Z</time>
      </trkpt>
      <trkpt lat="47.63605" lon="-2.95537">
        <ele>23.99</ele>
        <time>2021-07-27T10:25:34.925Z</time>
      </trkpt>
      <trkpt lat="47.63612" lon="-2.9553">
        <ele>24.33</ele>
        <time>2021-07-27T10:25:44.099Z</time>
      </trkpt>
      <trkpt lat="47.63615" lon="-2.95532">
        <ele>24.66</ele>
        <time>2021-07-27T10:25:53.109Z</time>
      </trkpt>
      <trkpt lat="47.63618" lon="-2.95538">
        <ele>24.73</ele>
        <time>2021-07-27T10:26:03.000Z</time>
      </trkpt>
      <trkpt lat="47.63618" lon="-2.95546">
        <ele>24.77</ele>
        <time>2021-07-27T10:26:12.069Z</time>
      </trkpt>
      <trkpt lat="47.63616" lon="-2.95564">
        <ele>24.49</ele>
        <time>2021-07-27T10:26:21.609Z</time>
      </trkpt>
      <trkpt lat="47.63611" lon="-2.95581">
        <ele>24.22</ele>
        <time>2021-07-27T10:26:31.229Z</time>
      </trkpt>
      <trkpt lat="47.6361" lon="-2.95596">
        <ele>24.23</ele>
        <time>2021-07-27T10:26:41.048Z</time>
      </trkpt>
      <trkpt lat="47.63609" lon="-2.95615">
        <ele>24.27</ele>
        <time>2021-07-27T10:26:50.909Z</time>
      </trkpt>
      <trkpt lat="47.6361" lon="-2.95628">
        <ele>24.21</ele>
        <time>2021-07-27T10:27:00.000Z</time>
      </trkpt>
      <trkpt lat="47.63611" lon="-2.95648">
        <ele>23.91</ele>
        <time>2021-07-27T10:27:09.288Z</time>
      </trkpt>
      <trkpt lat="47.63611" lon="-2.95666">
        <ele>21.91</ele>
        <time>2021-07-27T10:27:18.869Z</time>
      </trkpt>
      <trkpt lat="47.63607" lon="-2.95683">
        <ele>21.39</ele>
        <time>2021-07-27T10:27:29.179Z</time>
      </trkpt>
      <trkpt lat="47.63606" lon="-2.957">
        <ele>20.41</ele>
        <time>2021-07-27T10:27:39.000Z</time>
      </trkpt>
      <trkpt lat="47.63609" lon="-2.9572">
        <ele>20.22</ele>
        <time>2021-07-27T10:27:49.000Z</time>
      </trkpt>
      <trkpt lat="47.63611" lon="-2.95738">
        <ele>20.01</ele>
        <time>2021-07-27T10:27:59.000Z</time>
      </trkpt>
      <trkpt lat="47.63611" lon="-2.95756">
        <ele>19.04</ele>
        <time>2021-07-27T10:28:08.789Z</time>
      </trkpt>
      <trkpt lat="47.63615" lon="-2.95766">
        <ele>18.8</ele>
        <time>2021-07-27T10:28:18.931Z</time>
      </trkpt>
      <trkpt lat="47.63626" lon="-2.95764">
        <ele>18.45</ele>
        <time>2021-07-27T10:28:27.989Z</time>
      </trkpt>
      <trkpt lat="47.63635" lon="-2.9576">
        <ele>18.32</ele>
        <time>2021-07-27T10:28:37.000Z</time>
      </trkpt>
      <trkpt lat="47.63647" lon="-2.95759">
        <ele>17.96</ele>
        <time>2021-07-27T10:28:46.149Z</time>
      </trkpt>
      <trkpt lat="47.6366" lon="-2.95759">
        <ele>17.39</ele>
        <time>2021-07-27T10:28:55.688Z</time>
      </trkpt>
      <trkpt lat="47.63672" lon="-2.95762">
        <ele>16.08</ele>
        <time>2021-07-27T10:29:04.729Z</time>
      </trkpt>
      <trkpt lat="47.63686" lon="-2.95756">
        <ele>15.95</ele>
        <time>2021-07-27T10:29:14.237Z</time>
      </trkpt>
      <trkpt lat="47.63696" lon="-2.95747">
        <ele>15.43</ele>
        <time>2021-07-27T10:29:23.849Z</time>
      </trkpt>
      <trkpt lat="47.63708" lon="-2.95741">
        <ele>14.86</ele>
        <time>2021-07-27T10:29:33.009Z</time>
      </trkpt>
      <trkpt lat="47.6372" lon="-2.9574">
        <ele>14.94</ele>
        <time>2021-07-27T10:29:43.000Z</time>
      </trkpt>
      <trkpt lat="47.63734" lon="-2.95737">
        <ele>15.04</ele>
        <time>2021-07-27T10:29:53.029Z</time>
      </trkpt>
      <trkpt lat="47.63744" lon="-2.95732">
        <ele>15.18</ele>
        <time>2021-07-27T10:30:02.467Z</time>
      </trkpt>
      <trkpt lat="47.63751" lon="-2.95735">
        <ele>14.18</ele>
        <time>2021-07-27T10:30:12.000Z</time>
      </trkpt>
      <trkpt lat="47.6375" lon="-2.95742">
        <ele>14.11</ele>
        <time>2021-07-27T10:30:22.000Z</time>
      </trkpt>
      <trkpt lat="47.63752" lon="-2.9575">
        <ele>14.1</ele>
        <time>2021-07-27T10:30:31.749Z</time>
      </trkpt>
      <trkpt lat="47.63759" lon="-2.95751">
        <ele>14.07</ele>
        <time>2021-07-27T10:30:41.108Z</time>
      </trkpt>
      <trkpt lat="47.63765" lon="-2.95739">
        <ele>14.02</ele>
        <time>2021-07-27T10:30:50.228Z</time>
      </trkpt>
      <trkpt lat="47.63771" lon="-2.95728">
        <ele>13.91</ele>
        <time>2021-07-27T10:30:59.949Z</time>
      </trkpt>
      <trkpt lat="47.63773" lon="-2.95718">
        <ele>6.43</ele>
        <time>2021-07-27T10:31:09.000Z</time>
      </trkpt>
      <trkpt lat="47.63776" lon="-2.95702">
        <ele>6.69</ele>
        <time>2021-07-27T10:31:18.509Z</time>
      </trkpt>
      <trkpt lat="47.63783" lon="-2.9569">
        <ele>4.6</ele>
        <time>2021-07-27T10:31:27.629Z</time>
      </trkpt>
      <trkpt lat="47.63786" lon="-2.95677">
        <ele>8.45</ele>
        <time>2021-07-27T10:31:36.709Z</time>
      </trkpt>
      <trkpt lat="47.63791" lon="-2.9566">
        <ele>15.32</ele>
        <time>2021-07-27T10:31:46.569Z</time>
      </trkpt>
      <trkpt lat="47.63797" lon="-2.95647">
        <ele>-3.9</ele>
        <time>2021-07-27T10:31:55.629Z</time>
      </trkpt>
      <trkpt lat="47.63802" lon="-2.95634">
        <ele>6.73</ele>
        <time>2021-07-27T10:32:06.000Z</time>
      </trkpt>
      <trkpt lat="47.63809" lon="-2.95626">
        <ele>10.07</ele>
        <time>2021-07-27T10:32:15.195Z</time>
      </trkpt>
      <trkpt lat="47.63814" lon="-2.95613">
        <ele>11.66</ele>
        <time>2021-07-27T10:32:24.228Z</time>
      </trkpt>
      <trkpt lat="47.6382" lon="-2.95601">
        <ele>11.59</ele>
        <time>2021-07-27T10:32:33.498Z</time>
      </trkpt>
      <trkpt lat="47.63825" lon="-2.95589">
        <ele>11.58</ele>
        <time>2021-07-27T10:32:42.569Z</time>
      </trkpt>
      <trkpt lat="47.63831" lon="-2.95575">
        <ele>11.69</ele>
        <time>2021-07-27T10:32:51.788Z</time>
      </trkpt>
      <trkpt lat="47.63835" lon="-2.95562">
        <ele>11.61</ele>
        <time>2021-07-27T10:33:00.909Z</time>
      </trkpt>
      <trkpt lat="47.6384" lon="-2.95549">
        <ele>11.59</ele>
        <time>2021-07-27T10:33:10.269Z</time>
      </trkpt>
      <trkpt lat="47.63844" lon="-2.95535">
        <ele>11.65</ele>
        <time>2021-07-27T10:33:19.849Z</time>
      </trkpt>
      <trkpt lat="47.63849" lon="-2.95519">
        <ele>8.72</ele>
        <time>2021-07-27T10:33:29.948Z</time>
      </trkpt>
      <trkpt lat="47.63853" lon="-2.95507">
        <ele>8.69</ele>
        <time>2021-07-27T10:33:40.000Z</time>
      </trkpt>
      <trkpt lat="47.63857" lon="-2.95492">
        <ele>8.78</ele>
        <time>2021-07-27T10:33:49.288Z</time>
      </trkpt>
      <trkpt lat="47.63861" lon="-2.95477">
        <ele>8.74</ele>
        <time>2021-07-27T10:33:58.749Z</time>
      </trkpt>
      <trkpt lat="47.63869" lon="-2.95465">
        <ele>8.66</ele>
        <time>2021-07-27T10:34:07.829Z</time>
      </trkpt>
      <trkpt lat="47.63874" lon="-2.95453">
        <ele>8.77</ele>
        <time>2021-07-27T10:34:17.000Z</time>
      </trkpt>
      <trkpt lat="47.63881" lon="-2.95436">
        <ele>8.7</ele>
        <time>2021-07-27T10:34:26.789Z</time>
      </trkpt>
      <trkpt lat="47.63885" lon="-2.95422">
        <ele>8.74</ele>
        <time>2021-07-27T10:34:36.089Z</time>
      </trkpt>
      <trkpt lat="47.63892" lon="-2.95409">
        <ele>8.7</ele>
        <time>2021-07-27T10:34:45.169Z</time>
      </trkpt>
      <trkpt lat="47.63899" lon="-2.95396">
        <ele>8.62</ele>
        <time>2021-07-27T10:34:54.229Z</time>
      </trkpt>
      <trkpt lat="47.63903" lon="-2.95377">
        <ele>8.73</ele>
        <time>2021-07-27T10:35:03.889Z</time>
      </trkpt>
      <trkpt lat="47.63909" lon="-2.95362">
        <ele>8.82</ele>
        <time>2021-07-27T10:35:13.149Z</time>
      </trkpt>
      <trkpt lat="47.63916" lon="-2.95346">
        <ele>8.83</ele>
        <time>2021-07-27T10:35:22.689Z</time>
      </trkpt>
      <trkpt lat="47.63924" lon="-2.95333">
        <ele>8.89</ele>
        <time>2021-07-27T10:35:31.808Z</time>
      </trkpt>
      <trkpt lat="47.63933" lon="-2.95323">
        <ele>8.87</ele>
        <time>2021-07-27T10:35:40.919Z</time>
      </trkpt>
      <trkpt lat="47.63941" lon="-2.95312">
        <ele>8.98</ele>
        <time>2021-07-27T10:35:50.109Z</time>
      </trkpt>
      <trkpt lat="47.63947" lon="-2.95302">
        <ele>12.19</ele>
        <time>2021-07-27T10:35:59.148Z</time>
      </trkpt>
      <trkpt lat="47.63954" lon="-2.95295">
        <ele>12.41</ele>
        <time>2021-07-27T10:36:08.189Z</time>
      </trkpt>
      <trkpt lat="47.63962" lon="-2.95288">
        <ele>12.36</ele>
        <time>2021-07-27T10:36:17.730Z</time>
      </trkpt>
      <trkpt lat="47.63972" lon="-2.95283">
        <ele>12.3</ele>
        <time>2021-07-27T10:36:27.050Z</time>
      </trkpt>
      <trkpt lat="47.63982" lon="-2.95278">
        <ele>12.18</ele>
        <time>2021-07-27T10:36:36.088Z</time>
      </trkpt>
      <trkpt lat="47.63994" lon="-2.95273">
        <ele>10.29</ele>
        <time>2021-07-27T10:36:46.008Z</time>
      </trkpt>
      <trkpt lat="47.64007" lon="-2.95268">
        <ele>9.77</ele>
        <time>2021-07-27T10:36:56.000Z</time>
      </trkpt>
      <trkpt lat="47.64014" lon="-2.95258">
        <ele>7.97</ele>
        <time>2021-07-27T10:37:05.129Z</time>
      </trkpt>
      <trkpt lat="47.6402" lon="-2.95242">
        <ele>7.25</ele>
        <time>2021-07-27T10:37:14.929Z</time>
      </trkpt>
      <trkpt lat="47.64026" lon="-2.95228">
        <ele>6.1</ele>
        <time>2021-07-27T10:37:23.969Z</time>
      </trkpt>
      <trkpt lat="47.64032" lon="-2.95214">
        <ele>5.89</ele>
        <time>2021-07-27T10:37:33.457Z</time>
      </trkpt>
      <trkpt lat="47.64034" lon="-2.95201">
        <ele>6.13</ele>
        <time>2021-07-27T10:37:42.749Z</time>
      </trkpt>
      <trkpt lat="47.64037" lon="-2.95185">
        <ele>6.21</ele>
        <time>2021-07-27T10:37:52.509Z</time>
      </trkpt>
      <trkpt lat="47.64042" lon="-2.95173">
        <ele>6.29</ele>
        <time>2021-07-27T10:38:02.000Z</time>
      </trkpt>
      <trkpt lat="47.64047" lon="-2.95155">
        <ele>6.11</ele>
        <time>2021-07-27T10:38:11.856Z</time>
      </trkpt>
      <trkpt lat="47.64052" lon="-2.95142">
        <ele>6.3</ele>
        <time>2021-07-27T10:38:21.000Z</time>
      </trkpt>
      <trkpt lat="47.64055" lon="-2.95123">
        <ele>6.98</ele>
        <time>2021-07-27T10:38:30.675Z</time>
      </trkpt>
      <trkpt lat="47.64054" lon="-2.95107">
        <ele>7.46</ele>
        <time>2021-07-27T10:38:40.043Z</time>
      </trkpt>
      <trkpt lat="47.6405" lon="-2.95104">
        <ele>7.29</ele>
        <time>2021-07-27T10:38:49.574Z</time>
      </trkpt>
      <trkpt lat="47.64046" lon="-2.95106">
        <ele>7.74</ele>
        <time>2021-07-27T10:38:58.843Z</time>
      </trkpt>
      <trkpt lat="47.64041" lon="-2.95115">
        <ele>7.58</ele>
        <time>2021-07-27T10:39:08.102Z</time>
      </trkpt>
      <trkpt lat="47.64033" lon="-2.95123">
        <ele>6.66</ele>
        <time>2021-07-27T10:39:17.912Z</time>
      </trkpt>
      <trkpt lat="47.64026" lon="-2.95131">
        <ele>6.58</ele>
        <time>2021-07-27T10:39:26.993Z</time>
      </trkpt>
      <trkpt lat="47.6402" lon="-2.95139">
        <ele>6.48</ele>
        <time>2021-07-27T10:39:36.553Z</time>
      </trkpt>
      <trkpt lat="47.64015" lon="-2.95137">
        <ele>6.44</ele>
        <time>2021-07-27T10:39:46.252Z</time>
      </trkpt>
      <trkpt lat="47.64008" lon="-2.95126">
        <ele>6.39</ele>
        <time>2021-07-27T10:39:55.417Z</time>
      </trkpt>
      <trkpt lat="47.64005" lon="-2.9511">
        <ele>6.4</ele>
        <time>2021-07-27T10:40:05.062Z</time>
      </trkpt>
      <trkpt lat="47.64006" lon="-2.95095">
        <ele>10.27</ele>
        <time>2021-07-27T10:40:15.000Z</time>
      </trkpt>
      <trkpt lat="47.64005" lon="-2.95078">
        <ele>10.61</ele>
        <time>2021-07-27T10:40:25.000Z</time>
      </trkpt>
      <trkpt lat="47.64007" lon="-2.95065">
        <ele>11.41</ele>
        <time>2021-07-27T10:40:34.658Z</time>
      </trkpt>
      <trkpt lat="47.64006" lon="-2.95053">
        <ele>11.2</ele>
        <time>2021-07-27T10:40:44.000Z</time>
      </trkpt>
      <trkpt lat="47.64004" lon="-2.95037">
        <ele>11.45</ele>
        <time>2021-07-27T10:40:54.000Z</time>
      </trkpt>
      <trkpt lat="47.64004" lon="-2.95019">
        <ele>12.03</ele>
        <time>2021-07-27T10:41:03.540Z</time>
      </trkpt>
      <trkpt lat="47.64001" lon="-2.95004">
        <ele>12.1</ele>
        <time>2021-07-27T10:41:13.149Z</time>
      </trkpt>
      <trkpt lat="47.63995" lon="-2.94988">
        <ele>11.79</ele>
        <time>2021-07-27T10:41:22.799Z</time>
      </trkpt>
      <trkpt lat="47.63991" lon="-2.94975">
        <ele>11.88</ele>
        <time>2021-07-27T10:41:32.000Z</time>
      </trkpt>
      <trkpt lat="47.63985" lon="-2.94961">
        <ele>14.27</ele>
        <time>2021-07-27T10:41:41.041Z</time>
      </trkpt>
      <trkpt lat="47.63976" lon="-2.9495">
        <ele>15.63</ele>
        <time>2021-07-27T10:41:50.762Z</time>
      </trkpt>
      <trkpt lat="47.63974" lon="-2.94934">
        <ele>17.3</ele>
        <time>2021-07-27T10:41:59.939Z</time>
      </trkpt>
      <trkpt lat="47.63974" lon="-2.94919">
        <ele>17.9</ele>
        <time>2021-07-27T10:42:09.019Z</time>
      </trkpt>
      <trkpt lat="47.63973" lon="-2.94902">
        <ele>18.73</ele>
        <time>2021-07-27T10:42:18.819Z</time>
      </trkpt>
      <trkpt lat="47.63971" lon="-2.949">
        <ele>19.49</ele>
        <time>2021-07-27T10:42:28.000Z</time>
      </trkpt>
      <trkpt lat="47.63962" lon="-2.94903">
        <ele>19.97</ele>
        <time>2021-07-27T10:42:37.193Z</time>
      </trkpt>
      <trkpt lat="47.6395" lon="-2.94901">
        <ele>20.06</ele>
        <time>2021-07-27T10:42:46.631Z</time>
      </trkpt>
      <trkpt lat="47.63938" lon="-2.94901">
        <ele>20.18</ele>
        <time>2021-07-27T10:42:56.111Z</time>
      </trkpt>
      <trkpt lat="47.63929" lon="-2.94905">
        <ele>20.42</ele>
        <time>2021-07-27T10:43:05.781Z</time>
      </trkpt>
      <trkpt lat="47.63919" lon="-2.94904">
        <ele>20.63</ele>
        <time>2021-07-27T10:43:16.000Z</time>
      </trkpt>
      <trkpt lat="47.63908" lon="-2.94903">
        <ele>20.68</ele>
        <time>2021-07-27T10:43:26.000Z</time>
      </trkpt>
      <trkpt lat="47.63895" lon="-2.94906">
        <ele>20.99</ele>
        <time>2021-07-27T10:43:35.680Z</time>
      </trkpt>
      <trkpt lat="47.63886" lon="-2.94905">
        <ele>20.17</ele>
        <time>2021-07-27T10:43:45.000Z</time>
      </trkpt>
      <trkpt lat="47.63873" lon="-2.949">
        <ele>21.1</ele>
        <time>2021-07-27T10:43:54.452Z</time>
      </trkpt>
      <trkpt lat="47.63865" lon="-2.94885">
        <ele>22.01</ele>
        <time>2021-07-27T10:44:03.854Z</time>
      </trkpt>
      <trkpt lat="47.63861" lon="-2.94873">
        <ele>22.08</ele>
        <time>2021-07-27T10:44:13.040Z</time>
      </trkpt>
      <trkpt lat="47.6385" lon="-2.94864">
        <ele>22.65</ele>
        <time>2021-07-27T10:44:23.040Z</time>
      </trkpt>
      <trkpt lat="47.6384" lon="-2.94853">
        <ele>22.91</ele>
        <time>2021-07-27T10:44:32.659Z</time>
      </trkpt>
      <trkpt lat="47.63833" lon="-2.94842">
        <ele>22.95</ele>
        <time>2021-07-27T10:44:42.000Z</time>
      </trkpt>
      <trkpt lat="47.63822" lon="-2.94835">
        <ele>23.38</ele>
        <time>2021-07-27T10:44:51.278Z</time>
      </trkpt>
      <trkpt lat="47.63814" lon="-2.94825">
        <ele>23.94</ele>
        <time>2021-07-27T10:45:00.804Z</time>
      </trkpt>
      <trkpt lat="47.63807" lon="-2.94816">
        <ele>23.89</ele>
        <time>2021-07-27T10:45:10.108Z</time>
      </trkpt>
      <trkpt lat="47.63798" lon="-2.9481">
        <ele>24.74</ele>
        <time>2021-07-27T10:45:19.417Z</time>
      </trkpt>
      <trkpt lat="47.63789" lon="-2.94802">
        <ele>25</ele>
        <time>2021-07-27T10:45:29.103Z</time>
      </trkpt>
      <trkpt lat="47.63789" lon="-2.94794">
        <ele>26.21</ele>
        <time>2021-07-27T10:45:39.000Z</time>
      </trkpt>
      <trkpt lat="47.6379" lon="-2.94793">
        <ele>26.52</ele>
        <time>2021-07-27T10:45:50.000Z</time>
      </trkpt>
      <trkpt lat="47.6379" lon="-2.94795">
        <ele>25.85</ele>
        <time>2021-07-27T10:46:05.051Z</time>
      </trkpt>
      <trkpt lat="47.63791" lon="-2.94796">
        <ele>25.9</ele>
        <time>2021-07-27T10:46:24.000Z</time>
      </trkpt>
      <trkpt lat="47.63791" lon="-2.94797">
        <ele>24.3</ele>
        <time>2021-07-27T10:48:04.000Z</time>
      </trkpt>
    </trkseg>
  </trk>
</gpx>